OCN132W EDDF-FYWH
Flight info
| Callsign | OCN132W |
|---|---|
| Flight time | 10h 0m |
| Altitude | 35000 |
| Route | ANEKI2L/18 ANEKI Y163 NATOR DCT TRA/N0463F370 DCT RIPUS DCT GERSA DCT SOSON DCT ODINA DCT BETEN DCT OLBEK DCT CAR/N0466F360 DCT DOPEL/N0462F370 UM858 EBA/N0464F380 UG362 BARKA/N0462F370 UM2 DJA UB730 ENDOK/N0464F390 UB730 DIR UA607 FL UA403 BZ DCT KSA UT943 IMVEX/N0458F400 UT943 UNLOK/N0455F390 UT943 VEDRY |
| Aircraft | A333/H-SDE2E3FGHIJ3J4J5LM1OP2RWXYZ/LB2D1 |
Departure
| Time | 2026-05-03 20:33 |
|---|---|
| Airport | Frankfurt Main Airport (EDDF) |
Arrival
| Time | 2026-05-04 06:34 |
|---|---|
| Airport | Hosea Kutako International Airport (FYWH) |
| Time | Latitude | Longitude | Altitude | Speed | Heading |
|---|---|---|---|---|---|
| 2026-05-03 20:15 | 50.04887 | 8.57974 | 363 ft | 0 kts | 12° |
| 2026-05-03 20:18 | 50.04884 | 8.57973 | 363 ft | 3 kts | 12° |
| 2026-05-03 20:19 | 50.04858 | 8.57964 | 364 ft | 4 kts | 12° |
| 2026-05-03 20:19 | 50.04832 | 8.57956 | 367 ft | 3 kts | 11° |
| 2026-05-03 20:19 | 50.04808 | 8.57952 | 367 ft | 4 kts | 341° |
| 2026-05-03 20:19 | 50.04792 | 8.57974 | 368 ft | 4 kts | 276° |
| 2026-05-03 20:20 | 50.04794 | 8.58014 | 365 ft | 4 kts | 254° |
| 2026-05-03 20:20 | 50.04802 | 8.58051 | 368 ft | 1 kts | 250° |
| 2026-05-03 20:20 | 50.04802 | 8.58052 | 367 ft | 1 kts | 250° |
| 2026-05-03 20:23 | 50.04800 | 8.58041 | 367 ft | 4 kts | 250° |
| 2026-05-03 20:24 | 50.04782 | 8.57997 | 364 ft | 7 kts | 230° |
| 2026-05-03 20:24 | 50.04746 | 8.57944 | 366 ft | 7 kts | 222° |
| 2026-05-03 20:24 | 50.04711 | 8.57890 | 366 ft | 7 kts | 233° |
| 2026-05-03 20:24 | 50.04684 | 8.57797 | 367 ft | 12 kts | 249° |
| 2026-05-03 20:25 | 50.04651 | 8.57664 | 368 ft | 14 kts | 249° |
| 2026-05-03 20:25 | 50.04616 | 8.57516 | 366 ft | 15 kts | 249° |
| 2026-05-03 20:25 | 50.04580 | 8.57367 | 368 ft | 15 kts | 250° |
| 2026-05-03 20:25 | 50.04546 | 8.57221 | 368 ft | 14 kts | 250° |
| 2026-05-03 20:26 | 50.04509 | 8.57069 | 366 ft | 17 kts | 250° |
| 2026-05-03 20:26 | 50.04466 | 8.56887 | 368 ft | 17 kts | 250° |
| 2026-05-03 20:26 | 50.04424 | 8.56713 | 365 ft | 18 kts | 250° |
| 2026-05-03 20:26 | 50.04382 | 8.56534 | 369 ft | 18 kts | 250° |
| 2026-05-03 20:27 | 50.04338 | 8.56353 | 362 ft | 18 kts | 249° |
| 2026-05-03 20:27 | 50.04295 | 8.56172 | 366 ft | 18 kts | 250° |
| 2026-05-03 20:27 | 50.04252 | 8.55991 | 364 ft | 18 kts | 250° |
| 2026-05-03 20:27 | 50.04208 | 8.55809 | 362 ft | 18 kts | 249° |
| 2026-05-03 20:28 | 50.04165 | 8.55626 | 364 ft | 18 kts | 250° |
| 2026-05-03 20:28 | 50.04121 | 8.55443 | 363 ft | 18 kts | 249° |
| 2026-05-03 20:28 | 50.04079 | 8.55270 | 366 ft | 16 kts | 249° |
| 2026-05-03 20:28 | 50.04041 | 8.55110 | 362 ft | 16 kts | 249° |
| 2026-05-03 20:29 | 50.04001 | 8.54943 | 363 ft | 19 kts | 250° |
| 2026-05-03 20:29 | 50.03947 | 8.54716 | 358 ft | 20 kts | 249° |
| 2026-05-03 20:29 | 50.03899 | 8.54517 | 356 ft | 19 kts | 249° |
| 2026-05-03 20:29 | 50.03845 | 8.54335 | 355 ft | 18 kts | 236° |
| 2026-05-03 20:30 | 50.03787 | 8.54166 | 355 ft | 18 kts | 249° |
| 2026-05-03 20:30 | 50.03743 | 8.53986 | 355 ft | 18 kts | 249° |
| 2026-05-03 20:30 | 50.03699 | 8.53803 | 352 ft | 18 kts | 249° |
| 2026-05-03 20:30 | 50.03655 | 8.53620 | 350 ft | 18 kts | 248° |
| 2026-05-03 20:31 | 50.03609 | 8.53435 | 346 ft | 18 kts | 249° |
| 2026-05-03 20:31 | 50.03564 | 8.53250 | 352 ft | 18 kts | 250° |
| 2026-05-03 20:31 | 50.03520 | 8.53063 | 353 ft | 19 kts | 250° |
| 2026-05-03 20:31 | 50.03473 | 8.52875 | 336 ft | 19 kts | 247° |
| 2026-05-03 20:32 | 50.03429 | 8.52708 | 334 ft | 13 kts | 249° |
| 2026-05-03 20:32 | 50.03376 | 8.52611 | 335 ft | 12 kts | 207° |
| 2026-05-03 20:32 | 50.03291 | 8.52594 | 334 ft | 16 kts | 180° |
| 2026-05-03 20:32 | 50.03032 | 8.52595 | 339 ft | 64 kts | 180° |
| 2026-05-03 20:33 | 50.02396 | 8.52603 | 336 ft | 117 kts | 179° |
| 2026-05-03 20:33 | 50.01413 | 8.52615 | 336 ft | 164 kts | 179° |
| 2026-05-03 20:33 | 50.00197 | 8.52654 | 776 ft | 178 kts | 182° |
| 2026-05-03 20:33 | 49.98958 | 8.52703 | 1541 ft | 180 kts | 181° |
| 2026-05-03 20:34 | 49.97631 | 8.52788 | 1994 ft | 202 kts | 181° |
| 2026-05-03 20:34 | 49.96169 | 8.52889 | 2500 ft | 215 kts | 182° |
| 2026-05-03 20:34 | 49.94658 | 8.52998 | 3045 ft | 219 kts | 183° |
| 2026-05-03 20:34 | 49.93125 | 8.53109 | 3636 ft | 222 kts | 183° |
| 2026-05-03 20:35 | 49.91586 | 8.53220 | 4273 ft | 219 kts | 183° |
| 2026-05-03 20:35 | 49.90081 | 8.53330 | 5019 ft | 215 kts | 183° |
| 2026-05-03 20:35 | 49.88586 | 8.53436 | 5678 ft | 214 kts | 183° |
| 2026-05-03 20:35 | 49.87099 | 8.53538 | 6339 ft | 213 kts | 182° |
| 2026-05-03 20:36 | 49.85617 | 8.53639 | 6944 ft | 214 kts | 182° |
| 2026-05-03 20:36 | 49.84125 | 8.53740 | 7491 ft | 216 kts | 182° |
| 2026-05-03 20:36 | 49.82594 | 8.53841 | 7935 ft | 227 kts | 183° |
| 2026-05-03 20:36 | 49.80975 | 8.53945 | 8403 ft | 237 kts | 182° |
| 2026-05-03 20:37 | 49.79320 | 8.54058 | 9064 ft | 239 kts | 182° |
| 2026-05-03 20:37 | 49.77660 | 8.54055 | 9730 ft | 240 kts | 187° |
| 2026-05-03 20:37 | 49.75949 | 8.53868 | 10098 ft | 253 kts | 188° |
| 2026-05-03 20:37 | 49.74135 | 8.53621 | 10332 ft | 271 kts | 188° |
| 2026-05-03 20:38 | 49.72196 | 8.53353 | 10544 ft | 289 kts | 188° |
| 2026-05-03 20:38 | 49.70133 | 8.53073 | 10759 ft | 306 kts | 188° |
| 2026-05-03 20:38 | 49.67949 | 8.52780 | 10976 ft | 323 kts | 188° |
| 2026-05-03 20:38 | 49.65706 | 8.52484 | 11351 ft | 333 kts | 188° |
| 2026-05-03 20:39 | 49.63386 | 8.52181 | 11929 ft | 336 kts | 187° |
| 2026-05-03 20:39 | 49.61039 | 8.51874 | 12478 ft | 341 kts | 187° |
| 2026-05-03 20:39 | 49.58660 | 8.51563 | 12906 ft | 345 kts | 187° |
| 2026-05-03 20:39 | 49.56259 | 8.51249 | 13324 ft | 347 kts | 187° |
| 2026-05-03 20:40 | 49.53838 | 8.50931 | 13744 ft | 351 kts | 187° |
| 2026-05-03 20:40 | 49.51395 | 8.50610 | 14127 ft | 355 kts | 187° |
| 2026-05-03 20:40 | 49.48923 | 8.50286 | 14508 ft | 357 kts | 187° |
| 2026-05-03 20:40 | 49.46441 | 8.49962 | 14883 ft | 360 kts | 187° |
| 2026-05-03 20:41 | 49.43940 | 8.49634 | 15282 ft | 362 kts | 187° |
| 2026-05-03 20:41 | 49.41426 | 8.49306 | 15664 ft | 364 kts | 187° |
| 2026-05-03 20:41 | 49.38894 | 8.48975 | 16071 ft | 366 kts | 187° |
| 2026-05-03 20:41 | 49.36349 | 8.48643 | 16464 ft | 369 kts | 187° |
| 2026-05-03 20:42 | 49.33786 | 8.48309 | 16860 ft | 372 kts | 187° |
| 2026-05-03 20:42 | 49.31194 | 8.47971 | 17232 ft | 376 kts | 187° |
| 2026-05-03 20:42 | 49.28579 | 8.47630 | 17705 ft | 379 kts | 187° |
| 2026-05-03 20:42 | 49.25935 | 8.47285 | 18203 ft | 382 kts | 187° |
| 2026-05-03 20:43 | 49.23277 | 8.46939 | 18626 ft | 385 kts | 187° |
| 2026-05-03 20:43 | 49.20599 | 8.46590 | 19059 ft | 387 kts | 187° |
| 2026-05-03 20:43 | 49.17901 | 8.46240 | 19436 ft | 391 kts | 187° |
| 2026-05-03 20:43 | 49.15185 | 8.45887 | 19886 ft | 392 kts | 187° |
| 2026-05-03 20:44 | 49.12463 | 8.45535 | 20337 ft | 394 kts | 187° |
| 2026-05-03 20:44 | 49.09728 | 8.45181 | 20778 ft | 395 kts | 187° |
| 2026-05-03 20:44 | 49.06991 | 8.44733 | 21204 ft | 396 kts | 191° |
| 2026-05-03 20:44 | 49.04276 | 8.43974 | 21625 ft | 397 kts | 193° |
| 2026-05-03 20:45 | 49.01572 | 8.43118 | 22043 ft | 398 kts | 194° |
| 2026-05-03 20:45 | 48.98860 | 8.42197 | 22454 ft | 400 kts | 194° |
| 2026-05-03 20:45 | 48.96139 | 8.41243 | 22826 ft | 402 kts | 195° |
| 2026-05-03 20:45 | 48.93410 | 8.40276 | 23230 ft | 404 kts | 195° |
| 2026-05-03 20:46 | 48.90672 | 8.39307 | 23620 ft | 405 kts | 195° |
| 2026-05-03 20:46 | 48.87917 | 8.38339 | 23946 ft | 407 kts | 195° |
| 2026-05-03 20:46 | 48.85152 | 8.37374 | 24270 ft | 409 kts | 194° |
| 2026-05-03 20:46 | 48.82411 | 8.36422 | 24589 ft | 410 kts | 194° |
| 2026-05-03 20:47 | 48.79618 | 8.35454 | 24916 ft | 412 kts | 195° |
| 2026-05-03 20:47 | 48.76824 | 8.34465 | 25228 ft | 414 kts | 195° |
| 2026-05-03 20:47 | 48.74019 | 8.33448 | 25535 ft | 415 kts | 195° |
| 2026-05-03 20:47 | 48.71207 | 8.32419 | 25846 ft | 417 kts | 195° |
| 2026-05-03 20:48 | 48.68382 | 8.31382 | 26158 ft | 418 kts | 195° |
| 2026-05-03 20:48 | 48.65552 | 8.30344 | 26487 ft | 419 kts | 195° |
| 2026-05-03 20:48 | 48.62710 | 8.29305 | 26786 ft | 421 kts | 195° |
| 2026-05-03 20:48 | 48.59854 | 8.28264 | 27070 ft | 423 kts | 195° |
| 2026-05-03 20:49 | 48.56987 | 8.27222 | 27389 ft | 424 kts | 195° |
| 2026-05-03 20:49 | 48.54109 | 8.26177 | 27684 ft | 427 kts | 195° |
| 2026-05-03 20:49 | 48.51190 | 8.25312 | 28001 ft | 429 kts | 189° |
| 2026-05-03 20:49 | 48.48201 | 8.25008 | 28290 ft | 433 kts | 181° |
| 2026-05-03 20:50 | 48.45184 | 8.25322 | 28569 ft | 436 kts | 176° |
| 2026-05-03 20:50 | 48.42164 | 8.25904 | 28854 ft | 439 kts | 174° |
| 2026-05-03 20:50 | 48.39136 | 8.26613 | 29159 ft | 441 kts | 173° |
| 2026-05-03 20:50 | 48.36106 | 8.27378 | 29462 ft | 442 kts | 173° |
| 2026-05-03 20:51 | 48.33069 | 8.28160 | 29713 ft | 444 kts | 173° |
| 2026-05-03 20:51 | 48.30018 | 8.28938 | 29950 ft | 446 kts | 173° |
| 2026-05-03 20:51 | 48.26949 | 8.29708 | 30178 ft | 448 kts | 173° |
| 2026-05-03 20:51 | 48.23869 | 8.30466 | 30401 ft | 450 kts | 173° |
| 2026-05-03 20:52 | 48.20776 | 8.31217 | 30649 ft | 451 kts | 173° |
| 2026-05-03 20:52 | 48.17679 | 8.31963 | 30962 ft | 450 kts | 173° |
| 2026-05-03 20:52 | 48.14592 | 8.32707 | 31275 ft | 449 kts | 173° |
| 2026-05-03 20:52 | 48.11509 | 8.33453 | 31533 ft | 450 kts | 174° |
| 2026-05-03 20:53 | 48.08414 | 8.34202 | 31774 ft | 451 kts | 174° |
| 2026-05-03 20:53 | 48.05325 | 8.34950 | 32082 ft | 450 kts | 174° |
| 2026-05-03 20:53 | 48.02236 | 8.35698 | 32406 ft | 449 kts | 174° |
| 2026-05-03 20:53 | 47.99157 | 8.36443 | 32690 ft | 448 kts | 174° |
| 2026-05-03 20:54 | 47.96077 | 8.37186 | 32972 ft | 448 kts | 174° |
| 2026-05-03 20:54 | 47.89935 | 8.38666 | 33475 ft | 448 kts | 174° |
| 2026-05-03 20:54 | 47.86850 | 8.39407 | 33676 ft | 449 kts | 174° |
| 2026-05-03 20:55 | 47.83767 | 8.40147 | 33962 ft | 448 kts | 174° |
| 2026-05-03 20:55 | 47.80688 | 8.40885 | 34218 ft | 447 kts | 174° |
| 2026-05-03 20:55 | 47.77613 | 8.41622 | 34432 ft | 447 kts | 175° |
| 2026-05-03 20:55 | 47.74542 | 8.42357 | 34627 ft | 447 kts | 174° |
| 2026-05-03 20:56 | 47.71465 | 8.43092 | 34765 ft | 448 kts | 174° |
| 2026-05-03 20:56 | 47.68377 | 8.43796 | 34865 ft | 450 kts | 176° |
| 2026-05-03 20:56 | 47.65264 | 8.44357 | 35011 ft | 450 kts | 177° |
| 2026-05-03 20:56 | 47.62151 | 8.44827 | 35066 ft | 449 kts | 178° |
| 2026-05-03 20:57 | 47.55970 | 8.45674 | 35074 ft | 445 kts | 178° |
| 2026-05-03 20:57 | 47.49804 | 8.46530 | 35073 ft | 445 kts | 178° |
| 2026-05-03 20:58 | 47.43634 | 8.47419 | 35077 ft | 446 kts | 178° |
| 2026-05-03 20:58 | 47.37460 | 8.48323 | 35071 ft | 446 kts | 178° |
| 2026-05-03 20:59 | 47.31320 | 8.49223 | 35069 ft | 446 kts | 178° |
| 2026-05-03 20:59 | 47.25138 | 8.50125 | 35072 ft | 446 kts | 178° |
| 2026-05-03 21:00 | 47.21004 | 8.50728 | 35070 ft | 447 kts | 178° |
| 2026-05-03 21:00 | 47.12768 | 8.51927 | 35068 ft | 447 kts | 178° |
| 2026-05-03 21:01 | 47.06578 | 8.52825 | 35039 ft | 447 kts | 178° |
| 2026-05-03 21:01 | 47.01391 | 8.53574 | 35065 ft | 448 kts | 178° |
| 2026-05-03 21:02 | 46.95188 | 8.54469 | 35079 ft | 448 kts | 178° |
| 2026-05-03 21:02 | 46.89022 | 8.55358 | 35077 ft | 448 kts | 178° |
| 2026-05-03 21:03 | 46.82822 | 8.56251 | 35085 ft | 447 kts | 178° |
| 2026-05-03 21:03 | 46.76630 | 8.57141 | 35085 ft | 448 kts | 178° |
| 2026-05-03 21:04 | 46.70424 | 8.58026 | 35097 ft | 449 kts | 178° |
| 2026-05-03 21:04 | 46.64210 | 8.58910 | 35097 ft | 449 kts | 178° |
| 2026-05-03 21:05 | 46.57995 | 8.59798 | 35116 ft | 449 kts | 178° |
| 2026-05-03 21:05 | 46.51779 | 8.60677 | 35114 ft | 449 kts | 178° |
| 2026-05-03 21:06 | 46.45565 | 8.61555 | 35121 ft | 449 kts | 178° |
| 2026-05-03 21:06 | 46.39354 | 8.62434 | 35105 ft | 448 kts | 178° |
| 2026-05-03 21:07 | 46.33139 | 8.63311 | 35116 ft | 449 kts | 178° |
| 2026-05-03 21:07 | 46.26922 | 8.64187 | 35114 ft | 449 kts | 178° |
| 2026-05-03 21:08 | 46.20725 | 8.65058 | 35102 ft | 448 kts | 178° |
| 2026-05-03 21:08 | 46.14504 | 8.65923 | 35107 ft | 450 kts | 178° |
| 2026-05-03 21:09 | 46.08327 | 8.67521 | 35103 ft | 454 kts | 169° |
| 2026-05-03 21:09 | 46.02265 | 8.70096 | 35125 ft | 455 kts | 167° |
| 2026-05-03 21:10 | 45.96217 | 8.72857 | 35115 ft | 457 kts | 166° |
| 2026-05-03 21:10 | 45.90150 | 8.75632 | 35126 ft | 458 kts | 166° |
| 2026-05-03 21:11 | 45.84067 | 8.78380 | 35120 ft | 458 kts | 167° |
| 2026-05-03 21:11 | 45.77991 | 8.81104 | 35114 ft | 458 kts | 167° |
| 2026-05-03 21:12 | 45.71898 | 8.83827 | 35110 ft | 458 kts | 167° |
| 2026-05-03 21:12 | 45.65820 | 8.86538 | 35097 ft | 458 kts | 167° |
| 2026-05-03 21:13 | 45.59736 | 8.89245 | 35104 ft | 458 kts | 167° |
| 2026-05-03 21:13 | 45.53659 | 8.91944 | 35095 ft | 457 kts | 167° |
| 2026-05-03 21:14 | 45.47575 | 8.94639 | 35104 ft | 457 kts | 167° |
| 2026-05-03 21:14 | 45.41497 | 8.97327 | 35087 ft | 458 kts | 167° |
| 2026-05-03 21:15 | 45.35410 | 9.00011 | 35100 ft | 458 kts | 168° |
| 2026-05-03 21:15 | 45.29320 | 9.02691 | 35096 ft | 458 kts | 168° |
| 2026-05-03 21:16 | 45.23229 | 9.05366 | 35097 ft | 458 kts | 168° |
| 2026-05-03 21:16 | 45.17146 | 9.08031 | 35099 ft | 458 kts | 167° |
| 2026-05-03 21:17 | 45.12085 | 9.10244 | 35097 ft | 457 kts | 167° |
| 2026-05-03 21:17 | 45.04975 | 9.13345 | 35099 ft | 457 kts | 167° |
| 2026-05-03 21:18 | 44.98891 | 9.15992 | 35104 ft | 458 kts | 167° |
| 2026-05-03 21:18 | 44.92805 | 9.18635 | 35100 ft | 458 kts | 167° |
| 2026-05-03 21:19 | 44.86700 | 9.21279 | 35114 ft | 460 kts | 167° |
| 2026-05-03 21:19 | 44.80620 | 9.23908 | 35115 ft | 460 kts | 167° |
| 2026-05-03 21:20 | 44.74499 | 9.26549 | 35124 ft | 460 kts | 167° |
| 2026-05-03 21:20 | 44.68379 | 9.29183 | 35141 ft | 460 kts | 167° |
| 2026-05-03 21:21 | 44.62246 | 9.31814 | 35133 ft | 461 kts | 167° |
| 2026-05-03 21:21 | 44.56116 | 9.34440 | 35147 ft | 460 kts | 167° |
| 2026-05-03 21:22 | 44.50001 | 9.37057 | 35144 ft | 459 kts | 167° |
| 2026-05-03 21:22 | 44.43894 | 9.39662 | 35153 ft | 459 kts | 167° |
| 2026-05-03 21:23 | 44.37776 | 9.42267 | 35155 ft | 459 kts | 167° |
| 2026-05-03 21:23 | 44.31659 | 9.44865 | 35154 ft | 459 kts | 167° |
| 2026-05-03 21:24 | 44.25540 | 9.47457 | 35152 ft | 460 kts | 167° |
| 2026-05-03 21:24 | 44.19407 | 9.50050 | 35152 ft | 461 kts | 167° |
| 2026-05-03 21:25 | 44.13262 | 9.52643 | 35152 ft | 462 kts | 167° |
| 2026-05-03 21:25 | 44.07149 | 9.55218 | 35152 ft | 462 kts | 167° |
| 2026-05-03 21:26 | 44.01004 | 9.57801 | 35141 ft | 462 kts | 167° |
| 2026-05-03 21:26 | 43.94845 | 9.60382 | 35152 ft | 462 kts | 167° |
| 2026-05-03 21:27 | 43.88684 | 9.62960 | 35147 ft | 462 kts | 167° |
| 2026-05-03 21:27 | 43.82526 | 9.65530 | 35146 ft | 462 kts | 167° |
| 2026-05-03 21:28 | 43.76362 | 9.68098 | 35146 ft | 463 kts | 167° |
| 2026-05-03 21:28 | 43.70196 | 9.70661 | 35148 ft | 463 kts | 167° |
| 2026-05-03 21:29 | 43.64033 | 9.73217 | 35143 ft | 463 kts | 167° |
| 2026-05-03 21:29 | 43.57860 | 9.75752 | 35142 ft | 462 kts | 169° |
| 2026-05-03 21:30 | 43.51568 | 9.76956 | 35148 ft | 455 kts | 180° |
| 2026-05-03 21:30 | 43.45244 | 9.77314 | 35148 ft | 455 kts | 182° |
| 2026-05-03 21:31 | 43.38920 | 9.77513 | 35139 ft | 454 kts | 182° |
| 2026-05-03 21:31 | 43.32610 | 9.77715 | 35139 ft | 453 kts | 182° |
| 2026-05-03 21:32 | 43.26344 | 9.77943 | 35139 ft | 453 kts | 182° |
| 2026-05-03 21:32 | 43.20038 | 9.78184 | 35135 ft | 453 kts | 182° |
| 2026-05-03 21:33 | 43.13737 | 9.78427 | 35137 ft | 453 kts | 182° |
| 2026-05-03 21:33 | 43.07440 | 9.78668 | 35137 ft | 452 kts | 182° |
| 2026-05-03 21:34 | 43.01147 | 9.78907 | 35137 ft | 452 kts | 182° |
| 2026-05-03 21:34 | 42.94849 | 9.79146 | 35138 ft | 453 kts | 182° |
| 2026-05-03 21:35 | 42.88546 | 9.79385 | 35132 ft | 453 kts | 182° |
| 2026-05-03 21:35 | 42.82241 | 9.79623 | 35129 ft | 453 kts | 182° |
| 2026-05-03 21:36 | 42.75940 | 9.79861 | 35131 ft | 453 kts | 182° |
| 2026-05-03 21:36 | 42.69640 | 9.80099 | 35131 ft | 453 kts | 182° |
| 2026-05-03 21:37 | 42.63345 | 9.80335 | 35130 ft | 453 kts | 182° |
| 2026-05-03 21:37 | 42.57051 | 9.80571 | 35128 ft | 452 kts | 182° |
| 2026-05-03 21:38 | 42.50763 | 9.80807 | 35130 ft | 452 kts | 182° |
| 2026-05-03 21:38 | 42.44481 | 9.81042 | 35146 ft | 451 kts | 182° |
| 2026-05-03 21:39 | 42.38242 | 9.81274 | 35130 ft | 451 kts | 182° |
| 2026-05-03 21:39 | 42.31964 | 9.81508 | 35140 ft | 451 kts | 182° |
| 2026-05-03 21:40 | 42.25688 | 9.81741 | 35135 ft | 451 kts | 182° |
| 2026-05-03 21:40 | 42.19404 | 9.81973 | 35135 ft | 451 kts | 182° |
| 2026-05-03 21:41 | 42.13129 | 9.82206 | 35144 ft | 451 kts | 182° |
| 2026-05-03 21:41 | 42.06852 | 9.82437 | 35133 ft | 451 kts | 182° |
| 2026-05-03 21:42 | 42.00576 | 9.82668 | 35147 ft | 451 kts | 182° |
| 2026-05-03 21:42 | 41.94301 | 9.82899 | 35143 ft | 451 kts | 181° |
| 2026-05-03 21:43 | 41.88032 | 9.83129 | 35139 ft | 451 kts | 181° |
| 2026-05-03 21:43 | 41.81761 | 9.83359 | 35135 ft | 451 kts | 181° |
| 2026-05-03 21:44 | 41.75476 | 9.83589 | 35140 ft | 453 kts | 181° |
| 2026-05-03 21:44 | 41.69151 | 9.83818 | 35141 ft | 455 kts | 181° |
| 2026-05-03 21:45 | 41.62822 | 9.84049 | 35146 ft | 455 kts | 181° |
| 2026-05-03 21:45 | 41.56493 | 9.84280 | 35132 ft | 455 kts | 181° |
| 2026-05-03 21:46 | 41.50165 | 9.84509 | 35139 ft | 455 kts | 181° |
| 2026-05-03 21:46 | 41.43828 | 9.84738 | 35140 ft | 456 kts | 181° |
| 2026-05-03 21:47 | 41.37490 | 9.84968 | 35137 ft | 455 kts | 181° |
| 2026-05-03 21:47 | 41.31155 | 9.85196 | 35135 ft | 456 kts | 181° |
| 2026-05-03 21:48 | 41.24829 | 9.85108 | 35132 ft | 453 kts | 188° |
| 2026-05-03 21:48 | 41.18572 | 9.84221 | 35132 ft | 452 kts | 189° |
| 2026-05-03 21:49 | 41.12365 | 9.83184 | 35127 ft | 452 kts | 190° |
| 2026-05-03 21:49 | 41.06145 | 9.82128 | 35128 ft | 449 kts | 190° |
| 2026-05-03 21:50 | 40.99948 | 9.81092 | 35131 ft | 448 kts | 190° |
| 2026-05-03 21:50 | 40.93758 | 9.80068 | 35129 ft | 449 kts | 190° |
| 2026-05-03 21:51 | 40.88567 | 9.79214 | 35130 ft | 449 kts | 190° |
| 2026-05-03 21:51 | 40.82366 | 9.78197 | 35132 ft | 449 kts | 190° |
| 2026-05-03 21:52 | 40.76208 | 9.77187 | 35134 ft | 449 kts | 190° |
| 2026-05-03 21:52 | 40.70008 | 9.76173 | 35134 ft | 449 kts | 189° |
| 2026-05-03 21:53 | 40.63818 | 9.75162 | 35141 ft | 448 kts | 189° |
| 2026-05-03 21:53 | 40.57630 | 9.74153 | 35139 ft | 448 kts | 189° |
| 2026-05-03 21:54 | 40.51441 | 9.73146 | 35142 ft | 448 kts | 189° |
| 2026-05-03 21:54 | 40.45259 | 9.72141 | 35145 ft | 448 kts | 189° |
| 2026-05-03 21:55 | 40.39071 | 9.71138 | 35146 ft | 447 kts | 189° |
| 2026-05-03 21:55 | 40.32898 | 9.70139 | 35147 ft | 447 kts | 189° |
| 2026-05-03 21:56 | 40.26719 | 9.69141 | 35155 ft | 447 kts | 189° |
| 2026-05-03 21:56 | 40.20538 | 9.68144 | 35151 ft | 447 kts | 189° |
| 2026-05-03 21:57 | 40.14362 | 9.67151 | 35151 ft | 447 kts | 189° |
| 2026-05-03 21:57 | 40.08183 | 9.66158 | 35148 ft | 447 kts | 189° |
| 2026-05-03 21:58 | 40.02003 | 9.65167 | 35154 ft | 447 kts | 189° |
| 2026-05-03 21:58 | 39.95827 | 9.64179 | 35153 ft | 447 kts | 189° |
| 2026-05-03 21:59 | 39.89657 | 9.63193 | 35162 ft | 447 kts | 189° |
| 2026-05-03 21:59 | 39.83485 | 9.62208 | 35151 ft | 447 kts | 189° |
| 2026-05-03 22:00 | 39.77308 | 9.61224 | 35164 ft | 448 kts | 189° |
| 2026-05-03 22:00 | 39.71121 | 9.60239 | 35151 ft | 448 kts | 189° |
| 2026-05-03 22:01 | 39.64937 | 9.59259 | 35153 ft | 448 kts | 189° |
| 2026-05-03 22:01 | 39.58754 | 9.58281 | 35160 ft | 448 kts | 189° |
| 2026-05-03 22:02 | 39.52607 | 9.57311 | 35161 ft | 448 kts | 189° |
| 2026-05-03 22:02 | 39.46376 | 9.56328 | 35165 ft | 448 kts | 189° |
| 2026-05-03 22:03 | 39.40179 | 9.55351 | 35160 ft | 448 kts | 189° |
| 2026-05-03 22:03 | 39.34033 | 9.54384 | 35161 ft | 448 kts | 189° |
| 2026-05-03 22:04 | 39.27855 | 9.53415 | 35160 ft | 448 kts | 189° |
| 2026-05-03 22:04 | 39.21669 | 9.52446 | 35158 ft | 447 kts | 189° |
| 2026-05-03 22:05 | 39.15506 | 9.51377 | 35155 ft | 446 kts | 194° |
| 2026-05-03 22:05 | 39.09720 | 9.48678 | 35153 ft | 442 kts | 211° |
| 2026-05-03 22:06 | 39.04748 | 9.44072 | 35154 ft | 441 kts | 220° |
| 2026-05-03 22:06 | 39.00051 | 9.39001 | 35152 ft | 441 kts | 221° |
| 2026-05-03 22:07 | 38.95387 | 9.33878 | 35148 ft | 441 kts | 221° |
| 2026-05-03 22:07 | 38.90687 | 9.28779 | 35146 ft | 442 kts | 221° |
| 2026-05-03 22:08 | 38.85970 | 9.23713 | 35139 ft | 442 kts | 221° |
| 2026-05-03 22:08 | 38.81240 | 9.18655 | 35141 ft | 442 kts | 221° |
| 2026-05-03 22:09 | 38.76512 | 9.13608 | 35140 ft | 442 kts | 220° |
| 2026-05-03 22:10 | 38.69446 | 9.06079 | 35132 ft | 443 kts | 221° |
| 2026-05-03 22:10 | 38.64706 | 9.01038 | 35128 ft | 443 kts | 221° |
| 2026-05-03 22:11 | 38.59965 | 8.96004 | 35124 ft | 443 kts | 221° |
| 2026-05-03 22:11 | 38.54984 | 8.91368 | 35112 ft | 446 kts | 211° |
| 2026-05-03 22:12 | 38.49122 | 8.88693 | 35115 ft | 454 kts | 193° |
| 2026-05-03 22:12 | 38.42778 | 8.88187 | 35114 ft | 459 kts | 184° |
| 2026-05-03 22:13 | 38.36373 | 8.88228 | 35108 ft | 461 kts | 183° |
| 2026-05-03 22:13 | 38.29966 | 8.88320 | 35097 ft | 461 kts | 184° |
| 2026-05-03 22:14 | 38.23516 | 8.88358 | 35106 ft | 465 kts | 185° |
| 2026-05-03 22:14 | 38.17045 | 8.88363 | 35100 ft | 465 kts | 185° |
| 2026-05-03 22:15 | 38.10569 | 8.88360 | 35094 ft | 465 kts | 185° |
| 2026-05-03 22:15 | 38.04094 | 8.88358 | 35092 ft | 465 kts | 185° |
| 2026-05-03 22:16 | 37.97622 | 8.88357 | 35092 ft | 465 kts | 185° |
| 2026-05-03 22:16 | 37.91149 | 8.88357 | 35089 ft | 465 kts | 185° |
| 2026-05-03 22:17 | 37.84676 | 8.88357 | 35072 ft | 465 kts | 185° |
| 2026-05-03 22:17 | 37.78220 | 8.88356 | 35083 ft | 469 kts | 185° |
| 2026-05-03 22:18 | 37.71647 | 8.88355 | 35080 ft | 470 kts | 185° |
| 2026-05-03 22:18 | 37.65107 | 8.88356 | 35080 ft | 470 kts | 185° |
| 2026-05-03 22:19 | 37.58616 | 8.88356 | 35078 ft | 470 kts | 186° |
| 2026-05-03 22:19 | 37.52011 | 8.88354 | 35079 ft | 473 kts | 186° |
| 2026-05-03 22:20 | 37.45428 | 8.88355 | 35081 ft | 473 kts | 186° |
| 2026-05-03 22:20 | 37.38854 | 8.88356 | 35081 ft | 473 kts | 186° |
| 2026-05-03 22:21 | 37.32311 | 8.88356 | 35082 ft | 474 kts | 186° |
| 2026-05-03 22:21 | 37.25665 | 8.88355 | 35077 ft | 474 kts | 186° |
| 2026-05-03 22:22 | 37.19108 | 8.88356 | 35077 ft | 474 kts | 186° |
| 2026-05-03 22:22 | 37.12506 | 8.88356 | 35066 ft | 475 kts | 187° |
| 2026-05-03 22:23 | 37.05888 | 8.88355 | 35075 ft | 476 kts | 187° |
| 2026-05-03 22:23 | 36.99268 | 8.88365 | 35076 ft | 477 kts | 185° |
| 2026-05-03 22:24 | 36.92606 | 8.89016 | 35075 ft | 481 kts | 181° |
| 2026-05-03 22:24 | 36.85936 | 8.89870 | 35079 ft | 482 kts | 181° |
| 2026-05-03 22:25 | 36.79255 | 8.90762 | 35081 ft | 483 kts | 181° |
| 2026-05-03 22:25 | 36.72564 | 8.91645 | 35087 ft | 483 kts | 181° |
| 2026-05-03 22:26 | 36.65876 | 8.92519 | 35097 ft | 483 kts | 181° |
| 2026-05-03 22:26 | 36.59181 | 8.93388 | 35104 ft | 485 kts | 181° |
| 2026-05-03 22:27 | 36.52457 | 8.94256 | 35102 ft | 486 kts | 181° |
| 2026-05-03 22:27 | 36.45730 | 8.95126 | 35101 ft | 486 kts | 181° |
| 2026-05-03 22:28 | 36.39008 | 8.95995 | 35092 ft | 486 kts | 181° |
| 2026-05-03 22:28 | 36.32285 | 8.96861 | 35110 ft | 486 kts | 182° |
| 2026-05-03 22:29 | 36.25559 | 8.97726 | 35118 ft | 486 kts | 182° |
| 2026-05-03 22:29 | 36.18885 | 8.98583 | 35122 ft | 486 kts | 182° |
| 2026-05-03 22:30 | 36.12119 | 8.99451 | 35121 ft | 485 kts | 181° |
| 2026-05-03 22:30 | 36.05458 | 9.00304 | 35132 ft | 484 kts | 181° |
| 2026-05-03 22:31 | 35.98761 | 9.01159 | 35140 ft | 484 kts | 181° |
| 2026-05-03 22:31 | 35.92058 | 9.02014 | 35141 ft | 484 kts | 181° |
| 2026-05-03 22:32 | 35.85351 | 9.02866 | 35139 ft | 486 kts | 181° |
| 2026-05-03 22:32 | 35.78623 | 9.03722 | 35147 ft | 486 kts | 181° |
| 2026-05-03 22:33 | 35.71892 | 9.04579 | 35145 ft | 486 kts | 181° |
| 2026-05-03 22:33 | 35.65158 | 9.05433 | 35152 ft | 486 kts | 181° |
| 2026-05-03 22:34 | 35.58430 | 9.06285 | 35153 ft | 486 kts | 181° |
| 2026-05-03 22:34 | 35.51691 | 9.07177 | 35153 ft | 487 kts | 181° |
| 2026-05-03 22:35 | 35.44960 | 9.08169 | 35152 ft | 487 kts | 180° |
| 2026-05-03 22:35 | 35.38226 | 9.09179 | 35160 ft | 488 kts | 180° |
| 2026-05-03 22:36 | 35.31487 | 9.10178 | 35146 ft | 488 kts | 180° |
| 2026-05-03 22:36 | 35.24743 | 9.11169 | 35163 ft | 488 kts | 180° |
| 2026-05-03 22:37 | 35.18001 | 9.12156 | 35163 ft | 488 kts | 181° |
| 2026-05-03 22:37 | 35.11250 | 9.13142 | 35156 ft | 489 kts | 181° |
| 2026-05-03 22:38 | 35.04493 | 9.14127 | 35161 ft | 489 kts | 180° |
| 2026-05-03 22:38 | 34.97727 | 9.15114 | 35165 ft | 490 kts | 181° |
| 2026-05-03 22:39 | 34.92106 | 9.15932 | 35161 ft | 489 kts | 181° |
| 2026-05-03 22:39 | 34.85342 | 9.16871 | 35166 ft | 487 kts | 182° |
| 2026-05-03 22:40 | 34.78600 | 9.17339 | 35162 ft | 484 kts | 185° |
| 2026-05-03 22:40 | 34.71864 | 9.17621 | 35169 ft | 484 kts | 185° |
| 2026-05-03 22:41 | 34.65123 | 9.17926 | 35171 ft | 485 kts | 185° |
| 2026-05-03 22:41 | 34.58389 | 9.18272 | 35169 ft | 484 kts | 185° |
| 2026-05-03 22:42 | 34.51664 | 9.18635 | 35170 ft | 484 kts | 185° |
| 2026-05-03 22:42 | 34.44944 | 9.18998 | 35166 ft | 484 kts | 185° |
| 2026-05-03 22:43 | 34.38255 | 9.19357 | 35143 ft | 484 kts | 184° |
| 2026-05-03 22:43 | 34.31538 | 9.19717 | 35164 ft | 483 kts | 184° |
| 2026-05-03 22:44 | 34.24826 | 9.20074 | 35163 ft | 483 kts | 184° |
| 2026-05-03 22:44 | 34.18116 | 9.20367 | 35154 ft | 482 kts | 186° |
| 2026-05-03 22:45 | 34.11417 | 9.20507 | 35140 ft | 481 kts | 186° |
| 2026-05-03 22:45 | 34.04721 | 9.20621 | 35153 ft | 481 kts | 186° |
| 2026-05-03 22:46 | 33.98034 | 9.20750 | 35154 ft | 481 kts | 186° |
| 2026-05-03 22:46 | 33.91345 | 9.20890 | 35148 ft | 481 kts | 186° |
| 2026-05-03 22:47 | 33.84648 | 9.21033 | 35136 ft | 481 kts | 186° |
| 2026-05-03 22:47 | 33.77951 | 9.21175 | 35137 ft | 481 kts | 186° |
| 2026-05-03 22:48 | 33.71253 | 9.21317 | 35142 ft | 482 kts | 186° |
| 2026-05-03 22:48 | 33.64553 | 9.21459 | 35138 ft | 481 kts | 186° |
| 2026-05-03 22:49 | 33.57856 | 9.21600 | 35140 ft | 481 kts | 185° |
| 2026-05-03 22:49 | 33.51160 | 9.21741 | 35143 ft | 481 kts | 185° |
| 2026-05-03 22:50 | 33.44515 | 9.21881 | 35143 ft | 481 kts | 185° |
| 2026-05-03 22:50 | 33.37825 | 9.22021 | 35144 ft | 481 kts | 185° |
| 2026-05-03 22:51 | 33.31143 | 9.22161 | 35140 ft | 480 kts | 185° |
| 2026-05-03 22:51 | 33.24463 | 9.22302 | 35143 ft | 480 kts | 185° |
| 2026-05-03 22:52 | 33.17791 | 9.22441 | 35138 ft | 480 kts | 185° |
| 2026-05-03 22:52 | 33.11120 | 9.22580 | 35140 ft | 480 kts | 185° |
| 2026-05-03 22:53 | 33.04444 | 9.22719 | 35143 ft | 480 kts | 185° |
| 2026-05-03 22:53 | 32.97773 | 9.22858 | 35143 ft | 479 kts | 185° |
| 2026-05-03 22:54 | 32.91098 | 9.22996 | 35339 ft | 480 kts | 185° |
| 2026-05-03 22:54 | 32.87756 | 9.23064 | 35514 ft | 481 kts | 185° |
| 2026-05-03 22:54 | 32.84405 | 9.23133 | 35713 ft | 481 kts | 185° |
| 2026-05-03 22:54 | 32.81061 | 9.23203 | 35915 ft | 481 kts | 185° |
| 2026-05-03 22:55 | 32.77719 | 9.23273 | 36151 ft | 480 kts | 185° |
| 2026-05-03 22:55 | 32.74391 | 9.23343 | 36369 ft | 479 kts | 185° |
| 2026-05-03 22:55 | 32.71056 | 9.23413 | 36578 ft | 479 kts | 185° |
| 2026-05-03 22:55 | 32.67725 | 9.23481 | 36786 ft | 478 kts | 185° |
| 2026-05-03 22:56 | 32.64398 | 9.23550 | 36993 ft | 478 kts | 185° |
| 2026-05-03 22:56 | 32.61081 | 9.23618 | 37207 ft | 477 kts | 185° |
| 2026-05-03 22:56 | 32.57763 | 9.23687 | 37404 ft | 477 kts | 185° |
| 2026-05-03 22:56 | 32.54447 | 9.23756 | 37554 ft | 476 kts | 185° |
| 2026-05-03 22:57 | 32.51133 | 9.23824 | 37760 ft | 476 kts | 185° |
| 2026-05-03 22:57 | 32.47822 | 9.23892 | 37950 ft | 475 kts | 185° |
| 2026-05-03 22:57 | 32.44522 | 9.23960 | 38118 ft | 475 kts | 185° |
| 2026-05-03 22:58 | 32.37912 | 9.24095 | 38148 ft | 474 kts | 185° |
| 2026-05-03 22:58 | 32.31319 | 9.24230 | 38144 ft | 474 kts | 185° |
| 2026-05-03 22:59 | 32.24729 | 9.24364 | 38144 ft | 474 kts | 185° |
| 2026-05-03 22:59 | 32.18136 | 9.24498 | 38140 ft | 474 kts | 185° |
| 2026-05-03 23:00 | 32.11544 | 9.24633 | 38144 ft | 474 kts | 185° |
| 2026-05-03 23:00 | 32.04946 | 9.24769 | 38143 ft | 474 kts | 185° |
| 2026-05-03 23:01 | 31.98393 | 9.24901 | 38138 ft | 474 kts | 185° |
| 2026-05-03 23:01 | 31.91796 | 9.25034 | 38140 ft | 474 kts | 185° |
| 2026-05-03 23:02 | 31.85198 | 9.25168 | 38141 ft | 474 kts | 185° |
| 2026-05-03 23:02 | 31.78596 | 9.25302 | 38139 ft | 474 kts | 185° |
| 2026-05-03 23:03 | 31.72075 | 9.24888 | 38126 ft | 463 kts | 198° |
| 2026-05-03 23:03 | 31.66147 | 9.22367 | 38135 ft | 449 kts | 214° |
| 2026-05-03 23:04 | 31.60720 | 9.18780 | 38130 ft | 447 kts | 217° |
| 2026-05-03 23:04 | 31.55391 | 9.15014 | 38129 ft | 447 kts | 217° |
| 2026-05-03 23:05 | 31.50060 | 9.11261 | 38128 ft | 447 kts | 217° |
| 2026-05-03 23:05 | 31.44702 | 9.07539 | 38123 ft | 448 kts | 217° |
| 2026-05-03 23:06 | 31.39333 | 9.03834 | 38122 ft | 448 kts | 217° |
| 2026-05-03 23:06 | 31.33957 | 9.00134 | 38123 ft | 448 kts | 217° |
| 2026-05-03 23:07 | 31.28581 | 8.96437 | 38117 ft | 448 kts | 217° |
| 2026-05-03 23:07 | 31.23206 | 8.92744 | 38114 ft | 448 kts | 217° |
| 2026-05-03 23:08 | 31.17826 | 8.89053 | 38114 ft | 449 kts | 217° |
| 2026-05-03 23:08 | 31.12443 | 8.85363 | 38115 ft | 449 kts | 216° |
| 2026-05-03 23:09 | 31.07057 | 8.81679 | 38110 ft | 449 kts | 216° |
| 2026-05-03 23:09 | 31.01671 | 8.77998 | 38108 ft | 449 kts | 216° |
| 2026-05-03 23:10 | 30.96283 | 8.74320 | 38106 ft | 449 kts | 216° |
| 2026-05-03 23:10 | 30.90890 | 8.70644 | 38100 ft | 449 kts | 216° |
| 2026-05-03 23:11 | 30.85499 | 8.66975 | 38101 ft | 449 kts | 216° |
| 2026-05-03 23:11 | 30.80142 | 8.63333 | 38099 ft | 449 kts | 216° |
| 2026-05-03 23:12 | 30.74749 | 8.59670 | 38096 ft | 449 kts | 216° |
| 2026-05-03 23:12 | 30.69352 | 8.56011 | 38093 ft | 449 kts | 216° |
| 2026-05-03 23:13 | 30.63957 | 8.52358 | 38107 ft | 449 kts | 216° |
| 2026-05-03 23:13 | 30.58558 | 8.48706 | 38086 ft | 450 kts | 216° |
| 2026-05-03 23:14 | 30.53151 | 8.45054 | 38084 ft | 450 kts | 216° |
| 2026-05-03 23:14 | 30.47744 | 8.41408 | 38104 ft | 449 kts | 216° |
| 2026-05-03 23:15 | 30.42349 | 8.37746 | 38100 ft | 449 kts | 216° |
| 2026-05-03 23:15 | 30.36961 | 8.34076 | 38077 ft | 449 kts | 216° |
| 2026-05-03 23:16 | 30.31578 | 8.30414 | 38078 ft | 448 kts | 216° |
| 2026-05-03 23:16 | 30.26202 | 8.26764 | 38083 ft | 448 kts | 216° |
| 2026-05-03 23:17 | 30.20826 | 8.23119 | 38092 ft | 448 kts | 216° |
| 2026-05-03 23:17 | 30.15453 | 8.19483 | 38079 ft | 447 kts | 216° |
| 2026-05-03 23:18 | 30.09949 | 8.16070 | 38076 ft | 454 kts | 207° |
| 2026-05-03 23:18 | 30.03713 | 8.14409 | 38073 ft | 470 kts | 188° |
| 2026-05-03 23:19 | 29.97122 | 8.15146 | 38074 ft | 481 kts | 175° |
| 2026-05-03 23:19 | 29.90538 | 8.16703 | 38072 ft | 484 kts | 173° |
| 2026-05-03 23:20 | 29.83997 | 8.18358 | 38056 ft | 484 kts | 173° |
| 2026-05-03 23:20 | 29.77410 | 8.19972 | 38067 ft | 484 kts | 173° |
| 2026-05-03 23:21 | 29.70808 | 8.21543 | 38070 ft | 484 kts | 174° |
| 2026-05-03 23:21 | 29.64207 | 8.23099 | 38070 ft | 484 kts | 174° |
| 2026-05-03 23:22 | 29.54313 | 8.25428 | 38064 ft | 484 kts | 174° |
| 2026-05-03 23:22 | 29.47706 | 8.26982 | 38067 ft | 485 kts | 174° |
| 2026-05-03 23:23 | 29.41098 | 8.28535 | 38064 ft | 485 kts | 174° |
| 2026-05-03 23:23 | 29.34495 | 8.30086 | 38064 ft | 484 kts | 174° |
| 2026-05-03 23:24 | 29.27888 | 8.31635 | 38034 ft | 484 kts | 174° |
| 2026-05-03 23:24 | 29.21284 | 8.33181 | 38061 ft | 485 kts | 174° |
| 2026-05-03 23:25 | 29.14675 | 8.34726 | 38073 ft | 485 kts | 174° |
| 2026-05-03 23:25 | 29.08061 | 8.36271 | 38068 ft | 485 kts | 174° |
| 2026-05-03 23:26 | 29.01442 | 8.37814 | 38064 ft | 485 kts | 174° |
| 2026-05-03 23:26 | 28.94828 | 8.39355 | 38062 ft | 485 kts | 174° |
| 2026-05-03 23:27 | 28.88210 | 8.40895 | 38064 ft | 485 kts | 174° |
| 2026-05-03 23:27 | 28.81595 | 8.42432 | 38064 ft | 485 kts | 174° |
| 2026-05-03 23:28 | 28.76097 | 8.43707 | 38064 ft | 485 kts | 174° |
| 2026-05-03 23:28 | 28.69481 | 8.45241 | 38065 ft | 485 kts | 174° |
| 2026-05-03 23:29 | 28.62862 | 8.46773 | 38062 ft | 485 kts | 174° |
| 2026-05-03 23:29 | 28.56248 | 8.48302 | 38053 ft | 485 kts | 174° |
| 2026-05-03 23:30 | 28.49632 | 8.49829 | 38062 ft | 485 kts | 174° |
| 2026-05-03 23:30 | 28.43014 | 8.51355 | 38053 ft | 485 kts | 174° |
| 2026-05-03 23:31 | 28.36390 | 8.52881 | 38051 ft | 485 kts | 174° |
| 2026-05-03 23:31 | 28.29783 | 8.54400 | 38059 ft | 485 kts | 174° |
| 2026-05-03 23:32 | 28.23168 | 8.55919 | 38051 ft | 485 kts | 174° |
| 2026-05-03 23:32 | 28.16561 | 8.57435 | 38053 ft | 484 kts | 174° |
| 2026-05-03 23:33 | 28.09999 | 8.58939 | 38041 ft | 485 kts | 174° |
| 2026-05-03 23:33 | 28.03391 | 8.60464 | 38040 ft | 485 kts | 174° |
| 2026-05-03 23:34 | 27.96787 | 8.61995 | 38040 ft | 484 kts | 174° |
| 2026-05-03 23:34 | 27.90185 | 8.63524 | 38036 ft | 484 kts | 174° |
| 2026-05-03 23:35 | 27.83583 | 8.65050 | 38040 ft | 484 kts | 174° |
| 2026-05-03 23:35 | 27.76980 | 8.66574 | 38027 ft | 484 kts | 174° |
| 2026-05-03 23:36 | 27.70372 | 8.68095 | 38036 ft | 485 kts | 174° |
| 2026-05-03 23:36 | 27.63758 | 8.69618 | 38037 ft | 485 kts | 174° |
| 2026-05-03 23:37 | 27.57146 | 8.71138 | 38036 ft | 485 kts | 174° |
| 2026-05-03 23:37 | 27.50533 | 8.72655 | 38035 ft | 486 kts | 175° |
| 2026-05-03 23:38 | 27.43906 | 8.74174 | 38029 ft | 486 kts | 175° |
| 2026-05-03 23:38 | 27.37271 | 8.75694 | 38028 ft | 486 kts | 175° |
| 2026-05-03 23:39 | 27.30636 | 8.77212 | 38023 ft | 486 kts | 175° |
| 2026-05-03 23:39 | 27.24003 | 8.78728 | 38023 ft | 486 kts | 175° |
| 2026-05-03 23:40 | 27.17371 | 8.80241 | 38020 ft | 486 kts | 175° |
| 2026-05-03 23:40 | 27.10745 | 8.81751 | 38026 ft | 485 kts | 175° |
| 2026-05-03 23:41 | 27.04171 | 8.83248 | 38023 ft | 485 kts | 175° |
| 2026-05-03 23:41 | 26.97509 | 8.84764 | 38026 ft | 485 kts | 175° |
| 2026-05-03 23:42 | 26.90935 | 8.86270 | 38027 ft | 485 kts | 175° |
| 2026-05-03 23:42 | 26.84326 | 8.87786 | 38030 ft | 484 kts | 175° |
| 2026-05-03 23:43 | 26.77734 | 8.89295 | 38029 ft | 483 kts | 175° |
| 2026-05-03 23:43 | 26.71148 | 8.90799 | 38016 ft | 483 kts | 175° |
| 2026-05-03 23:44 | 26.64565 | 8.92300 | 38011 ft | 483 kts | 175° |
| 2026-05-03 23:44 | 26.57974 | 8.93802 | 37991 ft | 483 kts | 175° |
| 2026-05-03 23:45 | 26.51394 | 8.95300 | 38014 ft | 482 kts | 175° |
| 2026-05-03 23:45 | 26.44814 | 8.96797 | 38018 ft | 482 kts | 175° |
| 2026-05-03 23:46 | 26.38238 | 8.98290 | 38017 ft | 482 kts | 175° |
| 2026-05-03 23:46 | 26.31667 | 8.99781 | 38020 ft | 482 kts | 175° |
| 2026-05-03 23:47 | 26.25096 | 9.01269 | 38026 ft | 482 kts | 175° |
| 2026-05-03 23:47 | 26.18523 | 9.02756 | 38023 ft | 481 kts | 175° |
| 2026-05-03 23:48 | 26.11961 | 9.04240 | 38017 ft | 481 kts | 175° |
| 2026-05-03 23:48 | 26.05394 | 9.05722 | 38025 ft | 482 kts | 175° |
| 2026-05-03 23:49 | 25.98827 | 9.07205 | 38022 ft | 482 kts | 175° |
| 2026-05-03 23:49 | 25.92261 | 9.08696 | 38022 ft | 482 kts | 175° |
| 2026-05-03 23:50 | 25.86809 | 9.09935 | 38026 ft | 481 kts | 175° |
| 2026-05-03 23:50 | 25.79143 | 9.11676 | 38028 ft | 481 kts | 175° |
| 2026-05-03 23:51 | 25.72590 | 9.13160 | 38029 ft | 481 kts | 175° |
| 2026-05-03 23:51 | 25.66083 | 9.14632 | 38002 ft | 481 kts | 175° |
| 2026-05-03 23:52 | 25.59535 | 9.16111 | 38033 ft | 480 kts | 176° |
| 2026-05-03 23:52 | 25.52989 | 9.17589 | 38030 ft | 480 kts | 176° |
| 2026-05-03 23:53 | 25.46444 | 9.19066 | 38031 ft | 480 kts | 175° |
| 2026-05-03 23:53 | 25.39897 | 9.20541 | 38031 ft | 480 kts | 176° |
| 2026-05-03 23:54 | 25.33352 | 9.22013 | 38025 ft | 480 kts | 176° |
| 2026-05-03 23:54 | 25.26813 | 9.23483 | 38041 ft | 479 kts | 176° |
| 2026-05-03 23:55 | 25.20279 | 9.24950 | 38048 ft | 479 kts | 176° |
| 2026-05-03 23:55 | 25.13742 | 9.26416 | 38041 ft | 479 kts | 176° |
| 2026-05-03 23:56 | 25.07208 | 9.27879 | 38044 ft | 479 kts | 176° |
| 2026-05-03 23:56 | 25.00666 | 9.29343 | 38038 ft | 480 kts | 176° |
| 2026-05-03 23:57 | 24.94114 | 9.30807 | 38039 ft | 481 kts | 176° |
| 2026-05-03 23:57 | 24.87562 | 9.32271 | 38034 ft | 481 kts | 176° |
| 2026-05-03 23:58 | 24.81008 | 9.33730 | 38017 ft | 480 kts | 176° |
| 2026-05-03 23:58 | 24.74454 | 9.35191 | 38021 ft | 481 kts | 176° |
| 2026-05-03 23:59 | 24.67898 | 9.36652 | 38009 ft | 481 kts | 176° |
| 2026-05-03 23:59 | 24.61330 | 9.38113 | 38013 ft | 482 kts | 176° |
| 2026-05-04 00:00 | 24.54756 | 9.39573 | 38040 ft | 482 kts | 176° |
| 2026-05-04 00:00 | 24.48184 | 9.41031 | 38065 ft | 482 kts | 176° |
| 2026-05-04 00:01 | 24.41613 | 9.42487 | 38060 ft | 482 kts | 176° |
| 2026-05-04 00:01 | 24.35085 | 9.43933 | 38084 ft | 482 kts | 176° |
| 2026-05-04 00:02 | 24.28567 | 9.45831 | 38076 ft | 493 kts | 163° |
| 2026-05-04 00:02 | 24.22414 | 9.49305 | 38066 ft | 500 kts | 157° |
| 2026-05-04 00:03 | 24.16394 | 9.53158 | 38063 ft | 502 kts | 155° |
| 2026-05-04 00:03 | 24.10396 | 9.57067 | 38029 ft | 502 kts | 156° |
| 2026-05-04 00:04 | 24.04393 | 9.60943 | 38015 ft | 501 kts | 156° |
| 2026-05-04 00:04 | 23.98388 | 9.64787 | 37993 ft | 500 kts | 156° |
| 2026-05-04 00:05 | 23.92380 | 9.68618 | 37999 ft | 500 kts | 156° |
| 2026-05-04 00:05 | 23.86370 | 9.72447 | 37999 ft | 500 kts | 156° |
| 2026-05-04 00:06 | 23.80358 | 9.76274 | 37989 ft | 500 kts | 156° |
| 2026-05-04 00:06 | 23.74352 | 9.80095 | 37979 ft | 500 kts | 156° |
| 2026-05-04 00:07 | 23.68341 | 9.83915 | 37989 ft | 500 kts | 156° |
| 2026-05-04 00:07 | 23.62330 | 9.87730 | 37987 ft | 500 kts | 156° |
| 2026-05-04 00:08 | 23.56320 | 9.91541 | 37988 ft | 499 kts | 156° |
| 2026-05-04 00:08 | 23.50313 | 9.95346 | 37982 ft | 499 kts | 156° |
| 2026-05-04 00:09 | 23.44305 | 9.99147 | 37985 ft | 499 kts | 156° |
| 2026-05-04 00:09 | 23.38291 | 10.02948 | 37979 ft | 500 kts | 156° |
| 2026-05-04 00:10 | 23.32282 | 10.06742 | 37980 ft | 499 kts | 156° |
| 2026-05-04 00:10 | 23.26270 | 10.10533 | 37977 ft | 499 kts | 156° |
| 2026-05-04 00:11 | 23.20256 | 10.14322 | 37977 ft | 499 kts | 156° |
| 2026-05-04 00:11 | 23.14240 | 10.18108 | 37974 ft | 500 kts | 156° |
| 2026-05-04 00:12 | 23.08225 | 10.21890 | 37962 ft | 500 kts | 157° |
| 2026-05-04 00:12 | 23.02206 | 10.25671 | 37974 ft | 500 kts | 157° |
| 2026-05-04 00:13 | 22.96191 | 10.29445 | 37973 ft | 499 kts | 157° |
| 2026-05-04 00:13 | 22.90172 | 10.33217 | 37974 ft | 499 kts | 157° |
| 2026-05-04 00:14 | 22.84154 | 10.36985 | 37970 ft | 499 kts | 157° |
| 2026-05-04 00:14 | 22.78134 | 10.40750 | 37969 ft | 499 kts | 157° |
| 2026-05-04 00:15 | 22.72158 | 10.44485 | 37969 ft | 499 kts | 157° |
| 2026-05-04 00:15 | 22.66139 | 10.48241 | 37968 ft | 499 kts | 157° |
| 2026-05-04 00:16 | 22.60157 | 10.52060 | 37959 ft | 501 kts | 155° |
| 2026-05-04 00:16 | 22.54230 | 10.56040 | 37961 ft | 501 kts | 155° |
| 2026-05-04 00:17 | 22.48319 | 10.60040 | 37958 ft | 500 kts | 155° |
| 2026-05-04 00:17 | 22.43374 | 10.63369 | 37958 ft | 499 kts | 155° |
| 2026-05-04 00:18 | 22.37484 | 10.67315 | 37952 ft | 497 kts | 156° |
| 2026-05-04 00:18 | 22.31615 | 10.71235 | 37961 ft | 495 kts | 156° |
| 2026-05-04 00:19 | 22.25788 | 10.75121 | 37963 ft | 495 kts | 156° |
| 2026-05-04 00:19 | 22.19887 | 10.79055 | 37939 ft | 495 kts | 156° |
| 2026-05-04 00:20 | 22.14061 | 10.82936 | 37957 ft | 495 kts | 156° |
| 2026-05-04 00:20 | 22.08195 | 10.86839 | 37932 ft | 495 kts | 156° |
| 2026-05-04 00:21 | 22.02334 | 10.90737 | 37939 ft | 494 kts | 156° |
| 2026-05-04 00:21 | 21.96481 | 10.94625 | 37941 ft | 494 kts | 156° |
| 2026-05-04 00:22 | 21.90629 | 10.98507 | 37938 ft | 494 kts | 156° |
| 2026-05-04 00:22 | 21.84774 | 11.02387 | 37938 ft | 494 kts | 156° |
| 2026-05-04 00:23 | 21.78917 | 11.06266 | 37930 ft | 494 kts | 156° |
| 2026-05-04 00:23 | 21.73064 | 11.10139 | 37913 ft | 493 kts | 156° |
| 2026-05-04 00:24 | 21.67233 | 11.13996 | 37917 ft | 491 kts | 156° |
| 2026-05-04 00:24 | 21.61418 | 11.17835 | 37917 ft | 490 kts | 156° |
| 2026-05-04 00:25 | 21.55600 | 11.21672 | 37917 ft | 491 kts | 156° |
| 2026-05-04 00:25 | 21.49782 | 11.25505 | 37912 ft | 491 kts | 156° |
| 2026-05-04 00:26 | 21.43960 | 11.29338 | 37912 ft | 491 kts | 156° |
| 2026-05-04 00:26 | 21.38143 | 11.33165 | 37894 ft | 490 kts | 156° |
| 2026-05-04 00:27 | 21.32330 | 11.36987 | 37901 ft | 490 kts | 156° |
| 2026-05-04 00:27 | 21.26521 | 11.40800 | 37899 ft | 490 kts | 156° |
| 2026-05-04 00:28 | 21.20715 | 11.44608 | 37897 ft | 490 kts | 156° |
| 2026-05-04 00:28 | 21.14941 | 11.48392 | 37898 ft | 489 kts | 156° |
| 2026-05-04 00:29 | 21.09091 | 11.52222 | 37898 ft | 490 kts | 156° |
| 2026-05-04 00:29 | 21.03321 | 11.55998 | 37894 ft | 490 kts | 156° |
| 2026-05-04 00:30 | 20.97509 | 11.59797 | 37887 ft | 490 kts | 156° |
| 2026-05-04 00:30 | 20.91695 | 11.63595 | 37894 ft | 489 kts | 156° |
| 2026-05-04 00:31 | 20.85880 | 11.67389 | 37888 ft | 489 kts | 156° |
| 2026-05-04 00:31 | 20.80069 | 11.71177 | 37889 ft | 489 kts | 156° |
| 2026-05-04 00:32 | 20.74262 | 11.74960 | 37889 ft | 489 kts | 156° |
| 2026-05-04 00:32 | 20.68455 | 11.78739 | 37886 ft | 488 kts | 156° |
| 2026-05-04 00:33 | 20.59767 | 11.84387 | 37884 ft | 487 kts | 156° |
| 2026-05-04 00:34 | 20.53975 | 11.88146 | 37883 ft | 487 kts | 156° |
| 2026-05-04 00:34 | 20.48184 | 11.91900 | 37899 ft | 487 kts | 156° |
| 2026-05-04 00:35 | 20.42392 | 11.95652 | 37882 ft | 487 kts | 156° |
| 2026-05-04 00:35 | 20.36599 | 11.99400 | 37885 ft | 487 kts | 156° |
| 2026-05-04 00:36 | 20.30811 | 12.03143 | 37884 ft | 486 kts | 156° |
| 2026-05-04 00:36 | 20.25024 | 12.06881 | 37888 ft | 486 kts | 156° |
| 2026-05-04 00:37 | 20.19236 | 12.10617 | 37885 ft | 486 kts | 156° |
| 2026-05-04 00:37 | 20.13448 | 12.14349 | 37880 ft | 486 kts | 156° |
| 2026-05-04 00:38 | 20.07661 | 12.18078 | 37883 ft | 486 kts | 156° |
| 2026-05-04 00:38 | 20.01874 | 12.21803 | 37877 ft | 486 kts | 156° |
| 2026-05-04 00:39 | 19.96082 | 12.25528 | 37880 ft | 487 kts | 156° |
| 2026-05-04 00:39 | 19.90286 | 12.29253 | 37877 ft | 487 kts | 156° |
| 2026-05-04 00:40 | 19.84492 | 12.32974 | 37878 ft | 487 kts | 156° |
| 2026-05-04 00:40 | 19.78699 | 12.36690 | 37879 ft | 486 kts | 156° |
| 2026-05-04 00:41 | 19.72942 | 12.40380 | 37880 ft | 486 kts | 156° |
| 2026-05-04 00:41 | 19.67146 | 12.44091 | 37882 ft | 487 kts | 156° |
| 2026-05-04 00:42 | 19.61333 | 12.47810 | 37876 ft | 488 kts | 156° |
| 2026-05-04 00:42 | 19.55523 | 12.51525 | 37881 ft | 488 kts | 156° |
| 2026-05-04 00:43 | 19.49709 | 12.55240 | 37877 ft | 488 kts | 156° |
| 2026-05-04 00:43 | 19.43894 | 12.58951 | 37867 ft | 488 kts | 156° |
| 2026-05-04 00:44 | 19.38079 | 12.62659 | 37876 ft | 488 kts | 156° |
| 2026-05-04 00:44 | 19.32264 | 12.66364 | 37869 ft | 488 kts | 156° |
| 2026-05-04 00:45 | 19.26445 | 12.70069 | 37870 ft | 488 kts | 156° |
| 2026-05-04 00:45 | 19.20628 | 12.73769 | 37870 ft | 488 kts | 156° |
| 2026-05-04 00:46 | 19.14810 | 12.77467 | 37873 ft | 488 kts | 156° |
| 2026-05-04 00:46 | 19.08991 | 12.81163 | 37867 ft | 488 kts | 156° |
| 2026-05-04 00:47 | 19.03178 | 12.84851 | 37867 ft | 487 kts | 156° |
| 2026-05-04 00:47 | 18.97273 | 12.88157 | 37864 ft | 476 kts | 166° |
| 2026-05-04 00:48 | 18.91038 | 12.90429 | 37869 ft | 473 kts | 169° |
| 2026-05-04 00:48 | 18.84767 | 12.92479 | 37872 ft | 472 kts | 170° |
| 2026-05-04 00:49 | 18.78483 | 12.94495 | 37870 ft | 472 kts | 170° |
| 2026-05-04 00:49 | 18.72204 | 12.96527 | 37870 ft | 472 kts | 170° |
| 2026-05-04 00:50 | 18.65924 | 12.98572 | 37846 ft | 472 kts | 169° |
| 2026-05-04 00:50 | 18.59657 | 13.00617 | 37871 ft | 472 kts | 169° |
| 2026-05-04 00:51 | 18.53386 | 13.02662 | 37865 ft | 471 kts | 169° |
| 2026-05-04 00:51 | 18.47120 | 13.04702 | 37871 ft | 471 kts | 169° |
| 2026-05-04 00:52 | 18.40856 | 13.06740 | 37874 ft | 471 kts | 169° |
| 2026-05-04 00:52 | 18.34588 | 13.08777 | 37868 ft | 471 kts | 169° |
| 2026-05-04 00:53 | 18.28321 | 13.10812 | 37866 ft | 471 kts | 169° |
| 2026-05-04 00:53 | 18.22054 | 13.12846 | 37862 ft | 471 kts | 169° |
| 2026-05-04 00:54 | 18.15781 | 13.14881 | 37864 ft | 472 kts | 169° |
| 2026-05-04 00:54 | 18.09493 | 13.16919 | 37862 ft | 473 kts | 169° |
| 2026-05-04 00:55 | 18.03206 | 13.18955 | 37861 ft | 473 kts | 169° |
| 2026-05-04 00:55 | 17.96915 | 13.20991 | 37857 ft | 473 kts | 169° |
| 2026-05-04 00:56 | 17.90632 | 13.23024 | 37860 ft | 472 kts | 169° |
| 2026-05-04 00:56 | 17.84360 | 13.25050 | 37862 ft | 472 kts | 169° |
| 2026-05-04 00:57 | 17.78083 | 13.27077 | 37863 ft | 472 kts | 169° |
| 2026-05-04 00:57 | 17.71813 | 13.29099 | 37862 ft | 472 kts | 169° |
| 2026-05-04 00:58 | 17.65540 | 13.31121 | 37861 ft | 472 kts | 169° |
| 2026-05-04 00:58 | 17.59267 | 13.33142 | 37862 ft | 472 kts | 169° |
| 2026-05-04 00:59 | 17.52993 | 13.35162 | 37866 ft | 472 kts | 169° |
| 2026-05-04 00:59 | 17.46720 | 13.37180 | 37864 ft | 471 kts | 169° |
| 2026-05-04 01:00 | 17.40447 | 13.39197 | 37864 ft | 471 kts | 169° |
| 2026-05-04 01:00 | 17.34177 | 13.41211 | 37864 ft | 471 kts | 169° |
| 2026-05-04 01:01 | 17.27949 | 13.43210 | 37850 ft | 471 kts | 168° |
| 2026-05-04 01:01 | 17.21643 | 13.45232 | 37860 ft | 471 kts | 168° |
| 2026-05-04 01:02 | 17.15420 | 13.47227 | 37862 ft | 471 kts | 168° |
| 2026-05-04 01:02 | 17.09159 | 13.49233 | 37857 ft | 471 kts | 168° |
| 2026-05-04 01:03 | 17.02892 | 13.51238 | 37857 ft | 472 kts | 168° |
| 2026-05-04 01:03 | 16.96597 | 13.53251 | 37854 ft | 473 kts | 168° |
| 2026-05-04 01:04 | 16.90295 | 13.55265 | 37856 ft | 474 kts | 168° |
| 2026-05-04 01:04 | 16.83982 | 13.57282 | 37845 ft | 475 kts | 168° |
| 2026-05-04 01:05 | 16.77658 | 13.59301 | 37845 ft | 475 kts | 168° |
| 2026-05-04 01:05 | 16.72362 | 13.60990 | 37843 ft | 475 kts | 168° |
| 2026-05-04 01:06 | 16.66043 | 13.63005 | 37844 ft | 475 kts | 168° |
| 2026-05-04 01:06 | 16.59721 | 13.65019 | 37843 ft | 475 kts | 168° |
| 2026-05-04 01:07 | 16.53443 | 13.67018 | 37847 ft | 475 kts | 168° |
| 2026-05-04 01:07 | 16.47081 | 13.69041 | 37848 ft | 475 kts | 168° |
| 2026-05-04 01:08 | 16.40806 | 13.71036 | 37838 ft | 475 kts | 168° |
| 2026-05-04 01:08 | 16.34488 | 13.73043 | 37838 ft | 475 kts | 168° |
| 2026-05-04 01:09 | 16.28167 | 13.75050 | 37830 ft | 475 kts | 168° |
| 2026-05-04 01:09 | 16.21847 | 13.77054 | 37826 ft | 475 kts | 167° |
| 2026-05-04 01:10 | 16.15520 | 13.79060 | 37835 ft | 475 kts | 167° |
| 2026-05-04 01:10 | 16.09193 | 13.81064 | 37838 ft | 476 kts | 167° |
| 2026-05-04 01:11 | 16.02858 | 13.83070 | 37832 ft | 476 kts | 167° |
| 2026-05-04 01:11 | 15.96531 | 13.85072 | 37829 ft | 475 kts | 167° |
| 2026-05-04 01:12 | 15.90201 | 13.87074 | 37828 ft | 476 kts | 168° |
| 2026-05-04 01:12 | 15.83873 | 13.89074 | 37820 ft | 475 kts | 167° |
| 2026-05-04 01:13 | 15.77560 | 13.91067 | 37832 ft | 474 kts | 167° |
| 2026-05-04 01:13 | 15.71251 | 13.93058 | 37831 ft | 474 kts | 167° |
| 2026-05-04 01:14 | 15.64937 | 13.95049 | 37829 ft | 474 kts | 167° |
| 2026-05-04 01:14 | 15.58621 | 13.97039 | 37823 ft | 474 kts | 167° |
| 2026-05-04 01:15 | 15.52306 | 13.99028 | 37824 ft | 475 kts | 167° |
| 2026-05-04 01:15 | 15.45981 | 14.01018 | 37825 ft | 475 kts | 167° |
| 2026-05-04 01:16 | 15.39653 | 14.03009 | 37828 ft | 475 kts | 167° |
| 2026-05-04 01:16 | 15.33321 | 14.05000 | 37829 ft | 475 kts | 167° |
| 2026-05-04 01:17 | 15.26988 | 14.06990 | 37821 ft | 475 kts | 167° |
| 2026-05-04 01:17 | 15.20698 | 14.08965 | 37827 ft | 475 kts | 167° |
| 2026-05-04 01:18 | 15.14325 | 14.10964 | 37820 ft | 475 kts | 167° |
| 2026-05-04 01:18 | 15.07996 | 14.12949 | 37811 ft | 475 kts | 167° |
| 2026-05-04 01:19 | 15.01669 | 14.14931 | 37814 ft | 475 kts | 167° |
| 2026-05-04 01:19 | 14.95346 | 14.16911 | 37820 ft | 475 kts | 167° |
| 2026-05-04 01:20 | 14.89023 | 14.18890 | 37813 ft | 475 kts | 167° |
| 2026-05-04 01:20 | 14.82738 | 14.20856 | 37809 ft | 475 kts | 167° |
| 2026-05-04 01:21 | 14.76425 | 14.22830 | 37804 ft | 473 kts | 167° |
| 2026-05-04 01:21 | 14.70122 | 14.24799 | 37812 ft | 473 kts | 167° |
| 2026-05-04 01:22 | 14.63820 | 14.26766 | 37811 ft | 473 kts | 167° |
| 2026-05-04 01:22 | 14.57518 | 14.28732 | 37814 ft | 473 kts | 167° |
| 2026-05-04 01:23 | 14.51215 | 14.30698 | 37822 ft | 473 kts | 167° |
| 2026-05-04 01:23 | 14.44911 | 14.32662 | 37823 ft | 473 kts | 167° |
| 2026-05-04 01:24 | 14.38603 | 14.34627 | 37818 ft | 473 kts | 167° |
| 2026-05-04 01:24 | 14.32297 | 14.36590 | 37823 ft | 473 kts | 167° |
| 2026-05-04 01:25 | 14.25989 | 14.38553 | 37815 ft | 473 kts | 167° |
| 2026-05-04 01:25 | 14.19686 | 14.40513 | 37819 ft | 473 kts | 167° |
| 2026-05-04 01:26 | 14.13377 | 14.42473 | 37822 ft | 473 kts | 167° |
| 2026-05-04 01:26 | 14.07113 | 14.44419 | 37821 ft | 473 kts | 167° |
| 2026-05-04 01:27 | 14.00808 | 14.46376 | 37829 ft | 473 kts | 167° |
| 2026-05-04 01:27 | 13.94501 | 14.48332 | 37826 ft | 473 kts | 167° |
| 2026-05-04 01:28 | 13.88191 | 14.50289 | 37829 ft | 473 kts | 167° |
| 2026-05-04 01:28 | 13.81884 | 14.52243 | 37827 ft | 473 kts | 167° |
| 2026-05-04 01:29 | 13.75578 | 14.54196 | 37822 ft | 473 kts | 167° |
| 2026-05-04 01:29 | 13.69303 | 14.56140 | 37830 ft | 469 kts | 167° |
| 2026-05-04 01:30 | 13.63058 | 14.58071 | 37823 ft | 469 kts | 167° |
| 2026-05-04 01:30 | 13.56813 | 14.60001 | 37825 ft | 469 kts | 167° |
| 2026-05-04 01:31 | 13.50561 | 14.61933 | 37825 ft | 469 kts | 167° |
| 2026-05-04 01:31 | 13.44315 | 14.63861 | 37826 ft | 469 kts | 167° |
| 2026-05-04 01:32 | 13.38065 | 14.65790 | 37821 ft | 468 kts | 167° |
| 2026-05-04 01:32 | 13.31828 | 14.67715 | 37821 ft | 468 kts | 167° |
| 2026-05-04 01:33 | 13.25597 | 14.69637 | 37821 ft | 468 kts | 167° |
| 2026-05-04 01:33 | 13.19366 | 14.71557 | 37821 ft | 468 kts | 167° |
| 2026-05-04 01:34 | 13.13135 | 14.73476 | 37821 ft | 468 kts | 167° |
| 2026-05-04 01:34 | 13.06905 | 14.75394 | 37819 ft | 468 kts | 167° |
| 2026-05-04 01:35 | 13.00671 | 14.77311 | 37819 ft | 467 kts | 166° |
| 2026-05-04 01:35 | 12.94442 | 14.79227 | 37822 ft | 467 kts | 166° |
| 2026-05-04 01:36 | 12.88255 | 14.81129 | 37819 ft | 467 kts | 166° |
| 2026-05-04 01:36 | 12.82026 | 14.83042 | 37823 ft | 467 kts | 166° |
| 2026-05-04 01:37 | 12.75799 | 14.84954 | 37824 ft | 467 kts | 166° |
| 2026-05-04 01:37 | 12.69566 | 14.86867 | 37824 ft | 468 kts | 166° |
| 2026-05-04 01:38 | 12.63327 | 14.88780 | 37823 ft | 468 kts | 166° |
| 2026-05-04 01:38 | 12.57083 | 14.90695 | 37823 ft | 469 kts | 166° |
| 2026-05-04 01:39 | 12.50835 | 14.92609 | 37825 ft | 469 kts | 166° |
| 2026-05-04 01:39 | 12.44581 | 14.94524 | 37822 ft | 469 kts | 166° |
| 2026-05-04 01:40 | 12.38322 | 14.96440 | 37821 ft | 470 kts | 166° |
| 2026-05-04 01:40 | 12.32060 | 14.98356 | 37820 ft | 470 kts | 166° |
| 2026-05-04 01:41 | 12.25792 | 15.00273 | 37826 ft | 470 kts | 166° |
| 2026-05-04 01:41 | 12.19524 | 15.02189 | 37830 ft | 470 kts | 166° |
| 2026-05-04 01:42 | 12.13196 | 15.03802 | 37829 ft | 466 kts | 175° |
| 2026-05-04 01:42 | 12.06758 | 15.04585 | 37830 ft | 466 kts | 177° |
| 2026-05-04 01:43 | 12.00302 | 15.05205 | 37830 ft | 466 kts | 178° |
| 2026-05-04 01:43 | 11.93844 | 15.05799 | 37820 ft | 466 kts | 177° |
| 2026-05-04 01:44 | 11.87377 | 15.06408 | 37817 ft | 467 kts | 177° |
| 2026-05-04 01:44 | 11.80909 | 15.07028 | 37818 ft | 467 kts | 177° |
| 2026-05-04 01:45 | 11.74441 | 15.07652 | 37816 ft | 467 kts | 177° |
| 2026-05-04 01:45 | 11.64736 | 15.08585 | 37814 ft | 467 kts | 177° |
| 2026-05-04 01:46 | 11.58314 | 15.09204 | 37819 ft | 461 kts | 177° |
| 2026-05-04 01:46 | 11.51935 | 15.09816 | 37817 ft | 460 kts | 177° |
| 2026-05-04 01:47 | 11.45600 | 15.10423 | 37816 ft | 460 kts | 177° |
| 2026-05-04 01:47 | 11.39220 | 15.11035 | 37816 ft | 460 kts | 177° |
| 2026-05-04 01:48 | 11.32841 | 15.11646 | 37814 ft | 461 kts | 177° |
| 2026-05-04 01:48 | 11.26462 | 15.12257 | 37813 ft | 460 kts | 176° |
| 2026-05-04 01:49 | 11.20084 | 15.12869 | 37816 ft | 460 kts | 176° |
| 2026-05-04 01:49 | 11.13716 | 15.13479 | 37816 ft | 460 kts | 176° |
| 2026-05-04 01:50 | 11.07345 | 15.14088 | 37814 ft | 460 kts | 176° |
| 2026-05-04 01:50 | 11.00978 | 15.14698 | 37818 ft | 460 kts | 176° |
| 2026-05-04 01:51 | 10.94612 | 15.15306 | 37815 ft | 460 kts | 176° |
| 2026-05-04 01:51 | 10.88236 | 15.15916 | 37818 ft | 460 kts | 176° |
| 2026-05-04 01:52 | 10.81852 | 15.16526 | 37819 ft | 461 kts | 176° |
| 2026-05-04 01:52 | 10.75456 | 15.17137 | 37816 ft | 461 kts | 176° |
| 2026-05-04 01:53 | 10.70146 | 15.17644 | 37819 ft | 461 kts | 176° |
| 2026-05-04 01:53 | 10.63754 | 15.18254 | 37824 ft | 461 kts | 176° |
| 2026-05-04 01:54 | 10.57363 | 15.18864 | 37822 ft | 461 kts | 176° |
| 2026-05-04 01:54 | 10.50971 | 15.19473 | 37824 ft | 461 kts | 176° |
| 2026-05-04 01:55 | 10.44578 | 15.20082 | 37825 ft | 461 kts | 176° |
| 2026-05-04 01:55 | 10.38186 | 15.20691 | 37822 ft | 461 kts | 176° |
| 2026-05-04 01:56 | 10.31793 | 15.21300 | 37822 ft | 461 kts | 176° |
| 2026-05-04 01:56 | 10.25401 | 15.21909 | 37822 ft | 462 kts | 176° |
| 2026-05-04 01:57 | 10.19004 | 15.22517 | 37825 ft | 462 kts | 176° |
| 2026-05-04 01:57 | 10.12608 | 15.23126 | 37825 ft | 462 kts | 176° |
| 2026-05-04 01:58 | 10.06209 | 15.23734 | 37829 ft | 462 kts | 176° |
| 2026-05-04 01:58 | 9.99848 | 15.24339 | 37830 ft | 462 kts | 176° |
| 2026-05-04 01:59 | 9.93405 | 15.24952 | 37829 ft | 462 kts | 176° |
| 2026-05-04 01:59 | 9.87004 | 15.25560 | 37833 ft | 462 kts | 176° |
| 2026-05-04 02:00 | 9.80602 | 15.26168 | 37836 ft | 461 kts | 176° |
| 2026-05-04 02:00 | 9.74264 | 15.26770 | 37842 ft | 460 kts | 176° |
| 2026-05-04 02:01 | 9.67888 | 15.27375 | 37842 ft | 460 kts | 176° |
| 2026-05-04 02:01 | 9.61512 | 15.27980 | 37847 ft | 460 kts | 176° |
| 2026-05-04 02:02 | 9.55132 | 15.28585 | 37849 ft | 460 kts | 176° |
| 2026-05-04 02:02 | 9.48746 | 15.29190 | 37858 ft | 461 kts | 176° |
| 2026-05-04 02:03 | 9.42349 | 15.29796 | 37858 ft | 463 kts | 176° |
| 2026-05-04 02:03 | 9.35932 | 15.30404 | 37857 ft | 463 kts | 176° |
| 2026-05-04 02:04 | 9.29517 | 15.31011 | 37857 ft | 463 kts | 176° |
| 2026-05-04 02:04 | 9.23097 | 15.31618 | 37857 ft | 463 kts | 176° |
| 2026-05-04 02:05 | 9.16684 | 15.32224 | 37859 ft | 463 kts | 176° |
| 2026-05-04 02:05 | 9.10266 | 15.32831 | 37859 ft | 463 kts | 176° |
| 2026-05-04 02:06 | 9.03844 | 15.33437 | 37862 ft | 464 kts | 176° |
| 2026-05-04 02:06 | 8.97420 | 15.34044 | 37863 ft | 464 kts | 176° |
| 2026-05-04 02:07 | 8.90991 | 15.34651 | 37861 ft | 464 kts | 176° |
| 2026-05-04 02:07 | 8.84569 | 15.35257 | 37863 ft | 464 kts | 176° |
| 2026-05-04 02:08 | 8.78144 | 15.35863 | 37864 ft | 464 kts | 176° |
| 2026-05-04 02:08 | 8.71755 | 15.36466 | 37867 ft | 465 kts | 176° |
| 2026-05-04 02:09 | 8.65313 | 15.37073 | 37866 ft | 465 kts | 176° |
| 2026-05-04 02:09 | 8.58867 | 15.37680 | 37868 ft | 465 kts | 176° |
| 2026-05-04 02:10 | 8.52416 | 15.38288 | 37868 ft | 465 kts | 176° |
| 2026-05-04 02:10 | 8.45971 | 15.38895 | 37866 ft | 465 kts | 176° |
| 2026-05-04 02:11 | 8.39523 | 15.39502 | 37867 ft | 465 kts | 175° |
| 2026-05-04 02:11 | 8.33075 | 15.40109 | 37873 ft | 466 kts | 175° |
| 2026-05-04 02:12 | 8.26621 | 15.40716 | 37875 ft | 466 kts | 175° |
| 2026-05-04 02:12 | 8.20170 | 15.41323 | 37872 ft | 466 kts | 175° |
| 2026-05-04 02:13 | 8.13715 | 15.41930 | 37877 ft | 466 kts | 175° |
| 2026-05-04 02:13 | 8.07262 | 15.42536 | 37877 ft | 466 kts | 175° |
| 2026-05-04 02:14 | 8.00808 | 15.43142 | 37885 ft | 465 kts | 175° |
| 2026-05-04 02:14 | 7.94375 | 15.43747 | 37883 ft | 464 kts | 175° |
| 2026-05-04 02:15 | 7.87943 | 15.44352 | 37892 ft | 464 kts | 175° |
| 2026-05-04 02:15 | 7.81514 | 15.44956 | 37891 ft | 464 kts | 175° |
| 2026-05-04 02:16 | 7.75078 | 15.45560 | 37901 ft | 464 kts | 175° |
| 2026-05-04 02:16 | 7.68648 | 15.46164 | 37900 ft | 464 kts | 175° |
| 2026-05-04 02:17 | 7.62206 | 15.46768 | 37897 ft | 466 kts | 175° |
| 2026-05-04 02:17 | 7.55739 | 15.47375 | 37916 ft | 467 kts | 175° |
| 2026-05-04 02:18 | 7.49263 | 15.47982 | 37914 ft | 467 kts | 175° |
| 2026-05-04 02:18 | 7.42792 | 15.48589 | 37930 ft | 467 kts | 175° |
| 2026-05-04 02:19 | 7.36322 | 15.49195 | 37934 ft | 467 kts | 175° |
| 2026-05-04 02:19 | 7.29844 | 15.49802 | 37949 ft | 467 kts | 175° |
| 2026-05-04 02:20 | 7.23385 | 15.50407 | 37947 ft | 466 kts | 175° |
| 2026-05-04 02:20 | 7.16935 | 15.51011 | 37946 ft | 465 kts | 175° |
| 2026-05-04 02:21 | 7.10484 | 15.51615 | 37944 ft | 465 kts | 175° |
| 2026-05-04 02:21 | 7.04032 | 15.52219 | 37943 ft | 466 kts | 175° |
| 2026-05-04 02:22 | 6.97578 | 15.52823 | 37959 ft | 466 kts | 175° |
| 2026-05-04 02:22 | 6.91125 | 15.53426 | 37961 ft | 466 kts | 175° |
| 2026-05-04 02:23 | 6.84711 | 15.54025 | 37967 ft | 466 kts | 175° |
| 2026-05-04 02:23 | 6.78257 | 15.54628 | 37967 ft | 466 kts | 175° |
| 2026-05-04 02:24 | 6.71802 | 15.55230 | 37970 ft | 466 kts | 175° |
| 2026-05-04 02:24 | 6.65354 | 15.55832 | 37967 ft | 465 kts | 175° |
| 2026-05-04 02:25 | 6.58902 | 15.56434 | 37973 ft | 466 kts | 174° |
| 2026-05-04 02:25 | 6.52460 | 15.57035 | 37969 ft | 464 kts | 174° |
| 2026-05-04 02:26 | 6.46045 | 15.57633 | 37971 ft | 462 kts | 174° |
| 2026-05-04 02:26 | 6.39640 | 15.58231 | 37970 ft | 462 kts | 174° |
| 2026-05-04 02:27 | 6.33235 | 15.58828 | 37967 ft | 463 kts | 174° |
| 2026-05-04 02:27 | 6.26822 | 15.59425 | 37964 ft | 463 kts | 174° |
| 2026-05-04 02:28 | 6.20417 | 15.60022 | 37964 ft | 463 kts | 174° |
| 2026-05-04 02:28 | 6.14004 | 15.60620 | 37955 ft | 463 kts | 174° |
| 2026-05-04 02:29 | 6.07587 | 15.61217 | 37953 ft | 463 kts | 174° |
| 2026-05-04 02:29 | 6.01176 | 15.61814 | 37955 ft | 463 kts | 174° |
| 2026-05-04 02:30 | 5.94761 | 15.62411 | 37950 ft | 463 kts | 174° |
| 2026-05-04 02:30 | 5.88397 | 15.63003 | 37949 ft | 462 kts | 174° |
| 2026-05-04 02:31 | 5.81985 | 15.63600 | 37941 ft | 463 kts | 174° |
| 2026-05-04 02:31 | 5.75558 | 15.64198 | 37941 ft | 464 kts | 174° |
| 2026-05-04 02:32 | 5.69131 | 15.64795 | 37938 ft | 464 kts | 174° |
| 2026-05-04 02:32 | 5.62704 | 15.65393 | 37938 ft | 464 kts | 174° |
| 2026-05-04 02:33 | 5.56274 | 15.65991 | 37930 ft | 464 kts | 174° |
| 2026-05-04 02:33 | 5.49851 | 15.66589 | 37936 ft | 464 kts | 174° |
| 2026-05-04 02:34 | 5.43423 | 15.67189 | 37934 ft | 463 kts | 174° |
| 2026-05-04 02:34 | 5.37005 | 15.67787 | 37928 ft | 463 kts | 174° |
| 2026-05-04 02:35 | 5.30588 | 15.68385 | 37926 ft | 463 kts | 174° |
| 2026-05-04 02:35 | 5.24167 | 15.68983 | 37921 ft | 463 kts | 174° |
| 2026-05-04 02:36 | 5.17790 | 15.69577 | 37926 ft | 463 kts | 174° |
| 2026-05-04 02:36 | 5.11373 | 15.70175 | 37923 ft | 463 kts | 174° |
| 2026-05-04 02:37 | 5.04960 | 15.70772 | 37924 ft | 463 kts | 174° |
| 2026-05-04 02:37 | 4.98551 | 15.71368 | 37924 ft | 462 kts | 174° |
| 2026-05-04 02:38 | 4.92145 | 15.71964 | 37922 ft | 462 kts | 174° |
| 2026-05-04 02:38 | 4.85739 | 15.72560 | 37921 ft | 462 kts | 174° |
| 2026-05-04 02:39 | 4.79333 | 15.73155 | 37922 ft | 462 kts | 174° |
| 2026-05-04 02:39 | 4.72926 | 15.73749 | 37921 ft | 462 kts | 174° |
| 2026-05-04 02:40 | 4.66530 | 15.74342 | 37920 ft | 461 kts | 174° |
| 2026-05-04 02:40 | 4.60150 | 15.74933 | 37921 ft | 461 kts | 174° |
| 2026-05-04 02:41 | 4.53762 | 15.75525 | 37917 ft | 461 kts | 174° |
| 2026-05-04 02:41 | 4.47375 | 15.76117 | 37918 ft | 461 kts | 174° |
| 2026-05-04 02:42 | 4.40986 | 15.76709 | 37915 ft | 461 kts | 174° |
| 2026-05-04 02:42 | 4.35680 | 15.77201 | 37916 ft | 461 kts | 174° |
| 2026-05-04 02:43 | 4.29300 | 15.77791 | 37916 ft | 460 kts | 174° |
| 2026-05-04 02:43 | 4.22921 | 15.78267 | 37915 ft | 460 kts | 180° |
| 2026-05-04 02:44 | 4.15485 | 15.78055 | 37916 ft | 460 kts | 182° |
| 2026-05-04 02:44 | 4.10123 | 15.77795 | 37917 ft | 460 kts | 182° |
| 2026-05-04 02:45 | 4.03728 | 15.77467 | 37919 ft | 460 kts | 182° |
| 2026-05-04 02:45 | 3.97334 | 15.77148 | 37918 ft | 460 kts | 182° |
| 2026-05-04 02:46 | 3.90949 | 15.76838 | 37923 ft | 459 kts | 182° |
| 2026-05-04 02:46 | 3.84565 | 15.76530 | 37923 ft | 459 kts | 182° |
| 2026-05-04 02:47 | 3.78187 | 15.76223 | 37926 ft | 459 kts | 182° |
| 2026-05-04 02:47 | 3.71803 | 15.75916 | 37924 ft | 459 kts | 182° |
| 2026-05-04 02:48 | 3.65415 | 15.75608 | 37928 ft | 459 kts | 182° |
| 2026-05-04 02:48 | 3.59073 | 15.75302 | 37927 ft | 459 kts | 182° |
| 2026-05-04 02:49 | 3.52693 | 15.74995 | 37926 ft | 459 kts | 182° |
| 2026-05-04 02:49 | 3.46306 | 15.74687 | 37929 ft | 459 kts | 182° |
| 2026-05-04 02:50 | 3.39924 | 15.74380 | 37930 ft | 459 kts | 182° |
| 2026-05-04 02:50 | 3.33541 | 15.74072 | 37932 ft | 459 kts | 182° |
| 2026-05-04 02:51 | 3.27157 | 15.73765 | 37931 ft | 459 kts | 182° |
| 2026-05-04 02:51 | 3.20773 | 15.73457 | 37930 ft | 459 kts | 182° |
| 2026-05-04 02:52 | 3.14394 | 15.73150 | 37934 ft | 459 kts | 182° |
| 2026-05-04 02:52 | 3.08007 | 15.72842 | 37930 ft | 459 kts | 182° |
| 2026-05-04 02:53 | 3.01624 | 15.72535 | 37928 ft | 459 kts | 182° |
| 2026-05-04 02:53 | 2.95241 | 15.72228 | 37928 ft | 459 kts | 182° |
| 2026-05-04 02:54 | 2.88858 | 15.71921 | 37930 ft | 460 kts | 182° |
| 2026-05-04 02:54 | 2.82462 | 15.71613 | 37931 ft | 460 kts | 182° |
| 2026-05-04 02:55 | 2.72862 | 15.71150 | 37928 ft | 460 kts | 182° |
| 2026-05-04 02:56 | 2.66461 | 15.70842 | 37931 ft | 460 kts | 182° |
| 2026-05-04 02:56 | 2.60062 | 15.70533 | 37931 ft | 460 kts | 182° |
| 2026-05-04 02:57 | 2.53660 | 15.70225 | 37931 ft | 460 kts | 182° |
| 2026-05-04 02:57 | 2.47264 | 15.69917 | 37934 ft | 460 kts | 182° |
| 2026-05-04 02:58 | 2.40866 | 15.69608 | 37934 ft | 460 kts | 182° |
| 2026-05-04 02:58 | 2.34467 | 15.69300 | 37932 ft | 460 kts | 182° |
| 2026-05-04 02:59 | 2.28069 | 15.68992 | 37934 ft | 460 kts | 182° |
| 2026-05-04 02:59 | 2.21715 | 15.68686 | 37932 ft | 460 kts | 182° |
| 2026-05-04 03:00 | 2.15324 | 15.68378 | 37933 ft | 458 kts | 183° |
| 2026-05-04 03:00 | 2.08969 | 15.68073 | 37937 ft | 456 kts | 183° |
| 2026-05-04 03:01 | 2.02630 | 15.67767 | 37936 ft | 456 kts | 183° |
| 2026-05-04 03:01 | 1.96284 | 15.67461 | 37933 ft | 457 kts | 183° |
| 2026-05-04 03:02 | 1.89942 | 15.67156 | 37940 ft | 457 kts | 183° |
| 2026-05-04 03:02 | 1.83593 | 15.66850 | 37940 ft | 457 kts | 183° |
| 2026-05-04 03:03 | 1.77244 | 15.66545 | 37935 ft | 457 kts | 183° |
| 2026-05-04 03:03 | 1.70887 | 15.66239 | 37939 ft | 457 kts | 183° |
| 2026-05-04 03:04 | 1.64525 | 15.65933 | 37939 ft | 457 kts | 183° |
| 2026-05-04 03:04 | 1.58169 | 15.65627 | 37945 ft | 457 kts | 183° |
| 2026-05-04 03:05 | 1.51808 | 15.65320 | 37948 ft | 457 kts | 183° |
| 2026-05-04 03:05 | 1.45451 | 15.65015 | 37950 ft | 458 kts | 183° |
| 2026-05-04 03:06 | 1.39085 | 15.64709 | 37952 ft | 458 kts | 183° |
| 2026-05-04 03:06 | 1.32703 | 15.64401 | 37953 ft | 459 kts | 183° |
| 2026-05-04 03:07 | 1.26324 | 15.64093 | 37955 ft | 458 kts | 182° |
| 2026-05-04 03:07 | 1.19970 | 15.63787 | 37958 ft | 457 kts | 182° |
| 2026-05-04 03:08 | 1.13629 | 15.63483 | 37964 ft | 456 kts | 182° |
| 2026-05-04 03:08 | 1.07282 | 15.63178 | 37963 ft | 459 kts | 182° |
| 2026-05-04 03:09 | 1.00873 | 15.62871 | 37966 ft | 463 kts | 182° |
| 2026-05-04 03:09 | 0.94443 | 15.62562 | 37968 ft | 463 kts | 182° |
| 2026-05-04 03:10 | 0.88007 | 15.62252 | 37966 ft | 463 kts | 182° |
| 2026-05-04 03:10 | 0.81575 | 15.61942 | 37970 ft | 463 kts | 182° |
| 2026-05-04 03:11 | 0.75188 | 15.61635 | 37965 ft | 462 kts | 182° |
| 2026-05-04 03:11 | 0.68769 | 15.61326 | 37968 ft | 462 kts | 181° |
| 2026-05-04 03:12 | 0.62326 | 15.61017 | 37969 ft | 464 kts | 181° |
| 2026-05-04 03:12 | 0.55881 | 15.60707 | 37972 ft | 464 kts | 181° |
| 2026-05-04 03:13 | 0.49433 | 15.60397 | 37968 ft | 464 kts | 181° |
| 2026-05-04 03:13 | 0.42987 | 15.60086 | 37968 ft | 464 kts | 181° |
| 2026-05-04 03:14 | 0.36544 | 15.59776 | 37971 ft | 464 kts | 182° |
| 2026-05-04 03:14 | 0.30079 | 15.59466 | 37968 ft | 466 kts | 182° |
| 2026-05-04 03:15 | 0.23593 | 15.59154 | 37969 ft | 467 kts | 182° |
| 2026-05-04 03:15 | 0.17102 | 15.58841 | 37967 ft | 467 kts | 182° |
| 2026-05-04 03:16 | 0.10614 | 15.58529 | 37972 ft | 467 kts | 182° |
| 2026-05-04 03:16 | 0.04125 | 15.58217 | 37973 ft | 467 kts | 182° |
| 2026-05-04 03:17 | -0.02364 | 15.57899 | 37965 ft | 467 kts | 182° |
| 2026-05-04 03:17 | -0.08834 | 15.57458 | 37970 ft | 466 kts | 184° |
| 2026-05-04 03:18 | -0.15297 | 15.56954 | 37965 ft | 466 kts | 184° |
| 2026-05-04 03:18 | -0.21758 | 15.56455 | 37969 ft | 466 kts | 184° |
| 2026-05-04 03:19 | -0.28221 | 15.55967 | 37970 ft | 466 kts | 184° |
| 2026-05-04 03:19 | -0.34681 | 15.55485 | 37964 ft | 466 kts | 184° |
| 2026-05-04 03:20 | -0.41148 | 15.55002 | 37967 ft | 466 kts | 184° |
| 2026-05-04 03:20 | -0.47608 | 15.54520 | 37967 ft | 465 kts | 184° |
| 2026-05-04 03:21 | -0.54068 | 15.54038 | 37970 ft | 465 kts | 184° |
| 2026-05-04 03:21 | -0.60527 | 15.53555 | 37961 ft | 465 kts | 184° |
| 2026-05-04 03:22 | -0.66983 | 15.53073 | 37963 ft | 465 kts | 184° |
| 2026-05-04 03:22 | -0.73443 | 15.52590 | 37964 ft | 465 kts | 184° |
| 2026-05-04 03:23 | -0.79892 | 15.52109 | 37959 ft | 463 kts | 184° |
| 2026-05-04 03:23 | -0.86311 | 15.51629 | 37960 ft | 462 kts | 184° |
| 2026-05-04 03:24 | -0.92722 | 15.51150 | 37962 ft | 462 kts | 184° |
| 2026-05-04 03:24 | -0.99139 | 15.50671 | 37961 ft | 462 kts | 184° |
| 2026-05-04 03:25 | -1.05553 | 15.50192 | 37961 ft | 462 kts | 184° |
| 2026-05-04 03:25 | -1.11966 | 15.49713 | 37958 ft | 462 kts | 184° |
| 2026-05-04 03:26 | -1.18378 | 15.49234 | 37958 ft | 462 kts | 184° |
| 2026-05-04 03:26 | -1.24783 | 15.48757 | 37958 ft | 462 kts | 184° |
| 2026-05-04 03:27 | -1.31152 | 15.48283 | 37957 ft | 462 kts | 184° |
| 2026-05-04 03:27 | -1.37558 | 15.47806 | 37957 ft | 462 kts | 184° |
| 2026-05-04 03:28 | -1.43960 | 15.47329 | 37960 ft | 462 kts | 184° |
| 2026-05-04 03:28 | -1.50367 | 15.46852 | 37962 ft | 462 kts | 184° |
| 2026-05-04 03:29 | -1.56796 | 15.46374 | 37956 ft | 464 kts | 184° |
| 2026-05-04 03:29 | -1.63232 | 15.45895 | 37955 ft | 464 kts | 184° |
| 2026-05-04 03:30 | -1.69667 | 15.45415 | 37962 ft | 464 kts | 184° |
| 2026-05-04 03:30 | -1.75020 | 15.45016 | 37959 ft | 464 kts | 184° |
| 2026-05-04 03:31 | -1.81450 | 15.44536 | 37959 ft | 464 kts | 184° |
| 2026-05-04 03:31 | -1.87883 | 15.44025 | 37958 ft | 464 kts | 184° |
| 2026-05-04 03:32 | -1.94327 | 15.43497 | 37955 ft | 465 kts | 184° |
| 2026-05-04 03:32 | -2.00772 | 15.42969 | 37956 ft | 465 kts | 184° |
| 2026-05-04 03:33 | -2.07218 | 15.42444 | 37969 ft | 465 kts | 184° |
| 2026-05-04 03:33 | -2.13666 | 15.41921 | 37965 ft | 465 kts | 184° |
| 2026-05-04 03:34 | -2.20107 | 15.41398 | 37965 ft | 465 kts | 184° |
| 2026-05-04 03:34 | -2.26552 | 15.40875 | 37969 ft | 464 kts | 184° |
| 2026-05-04 03:35 | -2.32947 | 15.40355 | 37969 ft | 464 kts | 184° |
| 2026-05-04 03:35 | -2.39435 | 15.39828 | 37971 ft | 464 kts | 184° |
| 2026-05-04 03:36 | -2.45876 | 15.39305 | 37972 ft | 464 kts | 184° |
| 2026-05-04 03:36 | -2.52311 | 15.38782 | 37968 ft | 464 kts | 184° |
| 2026-05-04 03:37 | -2.58708 | 15.38263 | 37973 ft | 464 kts | 184° |
| 2026-05-04 03:37 | -2.65168 | 15.37738 | 37974 ft | 467 kts | 184° |
| 2026-05-04 03:38 | -2.71653 | 15.37211 | 37981 ft | 468 kts | 184° |
| 2026-05-04 03:38 | -2.78144 | 15.36683 | 37975 ft | 468 kts | 184° |
| 2026-05-04 03:39 | -2.84629 | 15.36156 | 37978 ft | 468 kts | 184° |
| 2026-05-04 03:39 | -2.91111 | 15.35630 | 37976 ft | 468 kts | 184° |
| 2026-05-04 03:40 | -2.97601 | 15.35102 | 37980 ft | 468 kts | 184° |
| 2026-05-04 03:40 | -3.04106 | 15.34573 | 37978 ft | 470 kts | 184° |
| 2026-05-04 03:41 | -3.10628 | 15.34043 | 37978 ft | 470 kts | 184° |
| 2026-05-04 03:41 | -3.17147 | 15.33512 | 37980 ft | 470 kts | 184° |
| 2026-05-04 03:42 | -3.23673 | 15.32982 | 37977 ft | 470 kts | 184° |
| 2026-05-04 03:42 | -3.30187 | 15.32452 | 37987 ft | 470 kts | 184° |
| 2026-05-04 03:43 | -3.36709 | 15.31921 | 37987 ft | 470 kts | 185° |
| 2026-05-04 03:43 | -3.43227 | 15.31391 | 37994 ft | 470 kts | 185° |
| 2026-05-04 03:44 | -3.49747 | 15.30860 | 37993 ft | 470 kts | 185° |
| 2026-05-04 03:44 | -3.56263 | 15.30330 | 37987 ft | 470 kts | 185° |
| 2026-05-04 03:45 | -3.62739 | 15.29802 | 37992 ft | 470 kts | 185° |
| 2026-05-04 03:45 | -3.69300 | 15.29268 | 37984 ft | 470 kts | 185° |
| 2026-05-04 03:46 | -3.75770 | 15.28742 | 37985 ft | 470 kts | 185° |
| 2026-05-04 03:46 | -3.82333 | 15.28207 | 37987 ft | 470 kts | 185° |
| 2026-05-04 03:47 | -3.88863 | 15.27675 | 37989 ft | 471 kts | 185° |
| 2026-05-04 03:47 | -3.95388 | 15.27144 | 37987 ft | 471 kts | 185° |
| 2026-05-04 03:48 | -4.01871 | 15.26615 | 37981 ft | 471 kts | 185° |
| 2026-05-04 03:48 | -4.08405 | 15.26083 | 37983 ft | 471 kts | 185° |
| 2026-05-04 03:49 | -4.14935 | 15.25551 | 37972 ft | 471 kts | 185° |
| 2026-05-04 03:49 | -4.21448 | 15.25829 | 37974 ft | 470 kts | 167° |
| 2026-05-04 03:50 | -4.27462 | 15.28269 | 37966 ft | 468 kts | 146° |
| 2026-05-04 03:50 | -4.29998 | 15.30289 | 37967 ft | 467 kts | 135° |
| 2026-05-04 03:50 | -4.32266 | 15.32616 | 37965 ft | 467 kts | 132° |
| 2026-05-04 03:51 | -4.36645 | 15.37426 | 37938 ft | 468 kts | 136° |
| 2026-05-04 03:51 | -4.41961 | 15.41133 | 37939 ft | 468 kts | 156° |
| 2026-05-04 03:51 | -4.45031 | 15.42195 | 37941 ft | 467 kts | 167° |
| 2026-05-04 03:52 | -4.48230 | 15.42773 | 37941 ft | 467 kts | 171° |
| 2026-05-04 03:52 | -4.54692 | 15.43529 | 37940 ft | 468 kts | 174° |
| 2026-05-04 03:53 | -4.61180 | 15.44143 | 37946 ft | 469 kts | 174° |
| 2026-05-04 03:53 | -4.67673 | 15.44785 | 37948 ft | 469 kts | 174° |
| 2026-05-04 03:54 | -4.74157 | 15.45464 | 37955 ft | 469 kts | 174° |
| 2026-05-04 03:54 | -4.80640 | 15.46158 | 37957 ft | 468 kts | 173° |
| 2026-05-04 03:55 | -4.87121 | 15.46853 | 37959 ft | 468 kts | 173° |
| 2026-05-04 03:55 | -4.93604 | 15.47547 | 37957 ft | 468 kts | 173° |
| 2026-05-04 03:56 | -5.00087 | 15.48240 | 37965 ft | 469 kts | 173° |
| 2026-05-04 03:56 | -5.06526 | 15.48928 | 37968 ft | 468 kts | 173° |
| 2026-05-04 03:57 | -5.13007 | 15.49620 | 37965 ft | 469 kts | 173° |
| 2026-05-04 03:57 | -5.19499 | 15.50314 | 37966 ft | 471 kts | 174° |
| 2026-05-04 03:58 | -5.29298 | 15.51362 | 37974 ft | 472 kts | 174° |
| 2026-05-04 03:58 | -5.35832 | 15.52061 | 37971 ft | 472 kts | 174° |
| 2026-05-04 03:59 | -5.42369 | 15.52760 | 37971 ft | 472 kts | 174° |
| 2026-05-04 03:59 | -5.48907 | 15.53459 | 37977 ft | 472 kts | 174° |
| 2026-05-04 04:00 | -5.55447 | 15.54159 | 37975 ft | 473 kts | 174° |
| 2026-05-04 04:00 | -5.62007 | 15.54861 | 37976 ft | 474 kts | 174° |
| 2026-05-04 04:01 | -5.68572 | 15.55564 | 37972 ft | 474 kts | 174° |
| 2026-05-04 04:01 | -5.75135 | 15.56267 | 37975 ft | 474 kts | 174° |
| 2026-05-04 04:02 | -5.81698 | 15.56970 | 37979 ft | 474 kts | 174° |
| 2026-05-04 04:02 | -5.88261 | 15.57674 | 37976 ft | 474 kts | 174° |
| 2026-05-04 04:03 | -5.94799 | 15.58377 | 37977 ft | 472 kts | 174° |
| 2026-05-04 04:03 | -6.01318 | 15.59077 | 37974 ft | 471 kts | 174° |
| 2026-05-04 04:04 | -6.07834 | 15.59777 | 37980 ft | 471 kts | 174° |
| 2026-05-04 04:04 | -6.14358 | 15.60478 | 37975 ft | 471 kts | 174° |
| 2026-05-04 04:05 | -6.20875 | 15.61179 | 37975 ft | 471 kts | 174° |
| 2026-05-04 04:05 | -6.27391 | 15.61880 | 37975 ft | 471 kts | 174° |
| 2026-05-04 04:06 | -6.33898 | 15.62580 | 37981 ft | 470 kts | 174° |
| 2026-05-04 04:06 | -6.40402 | 15.63280 | 37984 ft | 470 kts | 174° |
| 2026-05-04 04:07 | -6.46906 | 15.63980 | 37986 ft | 470 kts | 174° |
| 2026-05-04 04:07 | -6.53411 | 15.64680 | 37982 ft | 470 kts | 174° |
| 2026-05-04 04:08 | -6.59912 | 15.65380 | 37990 ft | 470 kts | 174° |
| 2026-05-04 04:08 | -6.66357 | 15.66074 | 37989 ft | 467 kts | 174° |
| 2026-05-04 04:09 | -6.72815 | 15.66770 | 37987 ft | 466 kts | 174° |
| 2026-05-04 04:09 | -6.79311 | 15.67470 | 37994 ft | 466 kts | 174° |
| 2026-05-04 04:10 | -6.85765 | 15.68166 | 37994 ft | 467 kts | 174° |
| 2026-05-04 04:10 | -6.92177 | 15.68858 | 38000 ft | 467 kts | 174° |
| 2026-05-04 04:11 | -6.98628 | 15.69553 | 38000 ft | 466 kts | 173° |
| 2026-05-04 04:11 | -7.05083 | 15.70249 | 38003 ft | 466 kts | 173° |
| 2026-05-04 04:12 | -7.11529 | 15.70945 | 38003 ft | 466 kts | 173° |
| 2026-05-04 04:12 | -7.17978 | 15.71641 | 38006 ft | 466 kts | 173° |
| 2026-05-04 04:13 | -7.24423 | 15.72337 | 38007 ft | 466 kts | 173° |
| 2026-05-04 04:13 | -7.30870 | 15.73034 | 38009 ft | 466 kts | 173° |
| 2026-05-04 04:14 | -7.37314 | 15.73730 | 38007 ft | 465 kts | 173° |
| 2026-05-04 04:14 | -7.43742 | 15.74424 | 38008 ft | 464 kts | 173° |
| 2026-05-04 04:15 | -7.50164 | 15.75119 | 38010 ft | 464 kts | 173° |
| 2026-05-04 04:15 | -7.56591 | 15.75814 | 38012 ft | 464 kts | 173° |
| 2026-05-04 04:16 | -7.62970 | 15.76504 | 38011 ft | 464 kts | 173° |
| 2026-05-04 04:16 | -7.69438 | 15.77203 | 38014 ft | 464 kts | 173° |
| 2026-05-04 04:17 | -7.75823 | 15.77891 | 38011 ft | 464 kts | 173° |
| 2026-05-04 04:17 | -7.82247 | 15.78584 | 38010 ft | 464 kts | 173° |
| 2026-05-04 04:18 | -7.88669 | 15.79278 | 38008 ft | 464 kts | 173° |
| 2026-05-04 04:18 | -7.95097 | 15.79972 | 38012 ft | 464 kts | 173° |
| 2026-05-04 04:19 | -8.01521 | 15.80666 | 38015 ft | 464 kts | 173° |
| 2026-05-04 04:19 | -8.07940 | 15.81361 | 38013 ft | 464 kts | 173° |
| 2026-05-04 04:20 | -8.13310 | 15.81947 | 38013 ft | 463 kts | 173° |
| 2026-05-04 04:20 | -8.19711 | 15.82646 | 38023 ft | 463 kts | 173° |
| 2026-05-04 04:21 | -8.26114 | 15.83345 | 38018 ft | 463 kts | 173° |
| 2026-05-04 04:21 | -8.32514 | 15.84043 | 38020 ft | 463 kts | 173° |
| 2026-05-04 04:22 | -8.38872 | 15.84737 | 38020 ft | 463 kts | 173° |
| 2026-05-04 04:22 | -8.45270 | 15.85431 | 38019 ft | 462 kts | 173° |
| 2026-05-04 04:23 | -8.51654 | 15.86124 | 38026 ft | 461 kts | 173° |
| 2026-05-04 04:23 | -8.58037 | 15.86818 | 38024 ft | 461 kts | 173° |
| 2026-05-04 04:24 | -8.64419 | 15.87511 | 38028 ft | 461 kts | 173° |
| 2026-05-04 04:24 | -8.70802 | 15.88205 | 38031 ft | 461 kts | 173° |
| 2026-05-04 04:25 | -8.77187 | 15.88899 | 38031 ft | 461 kts | 173° |
| 2026-05-04 04:25 | -8.83572 | 15.89594 | 38030 ft | 462 kts | 173° |
| 2026-05-04 04:26 | -8.89961 | 15.90290 | 38030 ft | 462 kts | 173° |
| 2026-05-04 04:26 | -8.96351 | 15.90986 | 38028 ft | 462 kts | 173° |
| 2026-05-04 04:27 | -9.02740 | 15.91683 | 38032 ft | 462 kts | 173° |
| 2026-05-04 04:27 | -9.09129 | 15.92379 | 38029 ft | 462 kts | 173° |
| 2026-05-04 04:28 | -9.15516 | 15.93075 | 38037 ft | 462 kts | 172° |
| 2026-05-04 04:28 | -9.21910 | 15.93773 | 38036 ft | 462 kts | 172° |
| 2026-05-04 04:29 | -9.28311 | 15.94472 | 38036 ft | 462 kts | 172° |
| 2026-05-04 04:29 | -9.34705 | 15.95170 | 38036 ft | 462 kts | 172° |
| 2026-05-04 04:30 | -9.41101 | 15.95868 | 38035 ft | 462 kts | 172° |
| 2026-05-04 04:30 | -9.47500 | 15.96568 | 38037 ft | 462 kts | 172° |
| 2026-05-04 04:31 | -9.53887 | 15.97267 | 38038 ft | 461 kts | 172° |
| 2026-05-04 04:31 | -9.60269 | 15.97966 | 38039 ft | 461 kts | 172° |
| 2026-05-04 04:32 | -9.66606 | 15.98660 | 38037 ft | 461 kts | 172° |
| 2026-05-04 04:32 | -9.72988 | 15.99360 | 38037 ft | 461 kts | 172° |
| 2026-05-04 04:33 | -9.79367 | 16.00059 | 38040 ft | 461 kts | 172° |
| 2026-05-04 04:33 | -9.85791 | 16.00764 | 38038 ft | 461 kts | 173° |
| 2026-05-04 04:34 | -9.92117 | 16.01458 | 38042 ft | 460 kts | 173° |
| 2026-05-04 04:34 | -9.98487 | 16.02157 | 38041 ft | 460 kts | 173° |
| 2026-05-04 04:35 | -10.04860 | 16.02857 | 38051 ft | 460 kts | 173° |
| 2026-05-04 04:35 | -10.11227 | 16.03567 | 38048 ft | 460 kts | 172° |
| 2026-05-04 04:36 | -10.17589 | 16.04321 | 38057 ft | 460 kts | 172° |
| 2026-05-04 04:36 | -10.23950 | 16.05086 | 38058 ft | 460 kts | 172° |
| 2026-05-04 04:37 | -10.36668 | 16.06609 | 38062 ft | 460 kts | 172° |
| 2026-05-04 04:38 | -10.43027 | 16.07368 | 38064 ft | 460 kts | 172° |
| 2026-05-04 04:38 | -10.49386 | 16.08127 | 38065 ft | 460 kts | 172° |
| 2026-05-04 04:39 | -10.55745 | 16.08887 | 38066 ft | 460 kts | 172° |
| 2026-05-04 04:39 | -10.62099 | 16.09646 | 38072 ft | 460 kts | 172° |
| 2026-05-04 04:40 | -10.68456 | 16.10406 | 38072 ft | 460 kts | 172° |
| 2026-05-04 04:40 | -10.74809 | 16.11165 | 38081 ft | 460 kts | 172° |
| 2026-05-04 04:41 | -10.81163 | 16.11926 | 38079 ft | 460 kts | 172° |
| 2026-05-04 04:41 | -10.87519 | 16.12686 | 38080 ft | 460 kts | 172° |
| 2026-05-04 04:42 | -10.93905 | 16.13432 | 38081 ft | 465 kts | 173° |
| 2026-05-04 04:42 | -11.00325 | 16.14112 | 38085 ft | 468 kts | 173° |
| 2026-05-04 04:43 | -11.06799 | 16.14781 | 38080 ft | 467 kts | 173° |
| 2026-05-04 04:43 | -11.13268 | 16.15455 | 38088 ft | 467 kts | 173° |
| 2026-05-04 04:44 | -11.19777 | 16.16139 | 38091 ft | 467 kts | 173° |
| 2026-05-04 04:44 | -11.26204 | 16.16817 | 38090 ft | 467 kts | 173° |
| 2026-05-04 04:45 | -11.32678 | 16.17500 | 38098 ft | 467 kts | 173° |
| 2026-05-04 04:47 | -11.55315 | 16.19889 | 38104 ft | 467 kts | 173° |
| 2026-05-04 04:47 | -11.61783 | 16.20573 | 38100 ft | 467 kts | 174° |
| 2026-05-04 04:48 | -11.68243 | 16.21256 | 38117 ft | 466 kts | 174° |
| 2026-05-04 04:49 | -11.84386 | 16.22964 | 38117 ft | 467 kts | 174° |
| 2026-05-04 04:49 | -11.90849 | 16.23648 | 38102 ft | 467 kts | 174° |
| 2026-05-04 04:50 | -11.97311 | 16.24333 | 38109 ft | 467 kts | 174° |
| 2026-05-04 04:50 | -12.03787 | 16.25019 | 38106 ft | 468 kts | 174° |
| 2026-05-04 04:51 | -12.10272 | 16.25707 | 38106 ft | 468 kts | 174° |
| 2026-05-04 04:51 | -12.16756 | 16.26395 | 38112 ft | 468 kts | 174° |
| 2026-05-04 04:52 | -12.23236 | 16.27082 | 38104 ft | 468 kts | 174° |
| 2026-05-04 04:52 | -12.29719 | 16.27784 | 38116 ft | 469 kts | 174° |
| 2026-05-04 04:53 | -12.36177 | 16.28493 | 38110 ft | 471 kts | 174° |
| 2026-05-04 04:53 | -12.42696 | 16.29208 | 38104 ft | 471 kts | 174° |
| 2026-05-04 04:54 | -12.49215 | 16.29923 | 38105 ft | 471 kts | 174° |
| 2026-05-04 04:54 | -12.55735 | 16.30638 | 38120 ft | 471 kts | 174° |
| 2026-05-04 04:55 | -12.62255 | 16.31353 | 38127 ft | 471 kts | 174° |
| 2026-05-04 04:55 | -12.68778 | 16.32069 | 38114 ft | 472 kts | 174° |
| 2026-05-04 04:56 | -12.75309 | 16.32785 | 38114 ft | 472 kts | 174° |
| 2026-05-04 04:56 | -12.81841 | 16.33503 | 38113 ft | 472 kts | 174° |
| 2026-05-04 04:57 | -12.88373 | 16.34220 | 38113 ft | 472 kts | 174° |
| 2026-05-04 04:57 | -12.94902 | 16.34938 | 38112 ft | 472 kts | 174° |
| 2026-05-04 04:58 | -13.01432 | 16.35656 | 38112 ft | 471 kts | 174° |
| 2026-05-04 04:58 | -13.07952 | 16.36374 | 38110 ft | 471 kts | 174° |
| 2026-05-04 04:59 | -13.14477 | 16.37092 | 38115 ft | 472 kts | 174° |
| 2026-05-04 04:59 | -13.21004 | 16.37811 | 38120 ft | 472 kts | 174° |
| 2026-05-04 05:00 | -13.27531 | 16.38531 | 38125 ft | 472 kts | 174° |
| 2026-05-04 05:01 | -13.37318 | 16.39611 | 38116 ft | 472 kts | 175° |
| 2026-05-04 05:01 | -13.43844 | 16.40331 | 38118 ft | 472 kts | 175° |
| 2026-05-04 05:02 | -13.50374 | 16.41052 | 38118 ft | 472 kts | 175° |
| 2026-05-04 05:02 | -13.56898 | 16.41772 | 38119 ft | 472 kts | 175° |
| 2026-05-04 05:03 | -13.63424 | 16.42494 | 38126 ft | 472 kts | 175° |
| 2026-05-04 05:04 | -13.76448 | 16.43935 | 38119 ft | 473 kts | 175° |
| 2026-05-04 05:04 | -13.82994 | 16.44661 | 38122 ft | 473 kts | 175° |
| 2026-05-04 05:06 | -14.09185 | 16.47564 | 38128 ft | 474 kts | 175° |
| 2026-05-04 05:07 | -14.15750 | 16.48293 | 38125 ft | 475 kts | 175° |
| 2026-05-04 05:07 | -14.22312 | 16.49023 | 38133 ft | 475 kts | 175° |
| 2026-05-04 05:09 | -14.50780 | 16.52191 | 38135 ft | 476 kts | 176° |
| 2026-05-04 05:10 | -14.57367 | 16.52924 | 38133 ft | 476 kts | 176° |
| 2026-05-04 05:10 | -14.63951 | 16.53658 | 38130 ft | 476 kts | 176° |
| 2026-05-04 05:11 | -14.70535 | 16.54393 | 38128 ft | 476 kts | 176° |
| 2026-05-04 05:11 | -14.77125 | 16.55128 | 38127 ft | 476 kts | 176° |
| 2026-05-04 05:12 | -14.83714 | 16.55864 | 38129 ft | 476 kts | 176° |
| 2026-05-04 05:12 | -14.90299 | 16.56599 | 38125 ft | 476 kts | 176° |
| 2026-05-04 05:13 | -14.96887 | 16.57336 | 38125 ft | 476 kts | 176° |
| 2026-05-04 05:13 | -15.03476 | 16.58073 | 38125 ft | 476 kts | 176° |
| 2026-05-04 05:14 | -15.10069 | 16.58811 | 38125 ft | 477 kts | 176° |
| 2026-05-04 05:14 | -15.16668 | 16.59550 | 38120 ft | 477 kts | 176° |
| 2026-05-04 05:15 | -15.23225 | 16.60291 | 38119 ft | 477 kts | 176° |
| 2026-05-04 05:15 | -15.29866 | 16.61050 | 38117 ft | 477 kts | 176° |
| 2026-05-04 05:16 | -15.36466 | 16.61806 | 38126 ft | 477 kts | 176° |
| 2026-05-04 05:16 | -15.43083 | 16.62563 | 38116 ft | 479 kts | 176° |
| 2026-05-04 05:17 | -15.49724 | 16.63322 | 38113 ft | 480 kts | 176° |
| 2026-05-04 05:17 | -15.56372 | 16.64083 | 38113 ft | 480 kts | 176° |
| 2026-05-04 05:18 | -15.62973 | 16.64839 | 38114 ft | 480 kts | 176° |
| 2026-05-04 05:18 | -15.69615 | 16.65601 | 38113 ft | 480 kts | 176° |
| 2026-05-04 05:19 | -15.76259 | 16.66363 | 38112 ft | 481 kts | 176° |
| 2026-05-04 05:19 | -15.82911 | 16.67126 | 38111 ft | 481 kts | 176° |
| 2026-05-04 05:20 | -15.89561 | 16.67890 | 38103 ft | 481 kts | 176° |
| 2026-05-04 05:20 | -15.96214 | 16.68655 | 38103 ft | 481 kts | 176° |
| 2026-05-04 05:21 | -16.02863 | 16.69420 | 38100 ft | 481 kts | 176° |
| 2026-05-04 05:21 | -16.09514 | 16.70185 | 38102 ft | 481 kts | 176° |
| 2026-05-04 05:22 | -16.16156 | 16.70950 | 38106 ft | 480 kts | 176° |
| 2026-05-04 05:22 | -16.22788 | 16.71714 | 38106 ft | 479 kts | 176° |
| 2026-05-04 05:23 | -16.29423 | 16.72480 | 38103 ft | 480 kts | 176° |
| 2026-05-04 05:23 | -16.36055 | 16.73246 | 38103 ft | 480 kts | 176° |
| 2026-05-04 05:24 | -16.42696 | 16.74013 | 38104 ft | 480 kts | 176° |
| 2026-05-04 05:24 | -16.49336 | 16.74781 | 38106 ft | 480 kts | 176° |
| 2026-05-04 05:25 | -16.55984 | 16.75550 | 38109 ft | 481 kts | 176° |
| 2026-05-04 05:25 | -16.62632 | 16.76320 | 38105 ft | 481 kts | 176° |
| 2026-05-04 05:26 | -16.69276 | 16.77090 | 38107 ft | 480 kts | 176° |
| 2026-05-04 05:26 | -16.75925 | 16.77861 | 38111 ft | 481 kts | 177° |
| 2026-05-04 05:28 | -17.02568 | 16.80954 | 38111 ft | 482 kts | 177° |
| 2026-05-04 05:29 | -17.09232 | 16.81729 | 38106 ft | 482 kts | 177° |
| 2026-05-04 05:29 | -17.15902 | 16.82504 | 38099 ft | 482 kts | 177° |
| 2026-05-04 05:31 | -17.42589 | 16.85611 | 38103 ft | 483 kts | 178° |
| 2026-05-04 05:32 | -17.49220 | 16.86377 | 38100 ft | 483 kts | 178° |
| 2026-05-04 05:33 | -17.59236 | 16.87533 | 38098 ft | 483 kts | 178° |
| 2026-05-04 05:33 | -17.65914 | 16.88305 | 38097 ft | 483 kts | 178° |
| 2026-05-04 05:34 | -17.72588 | 16.89079 | 38090 ft | 483 kts | 178° |
| 2026-05-04 05:34 | -17.79272 | 16.89853 | 38090 ft | 483 kts | 178° |
| 2026-05-04 05:35 | -17.85957 | 16.90629 | 38105 ft | 483 kts | 178° |
| 2026-05-04 05:35 | -17.92643 | 16.91406 | 38097 ft | 483 kts | 178° |
| 2026-05-04 05:36 | -17.99325 | 16.92183 | 38087 ft | 483 kts | 178° |
| 2026-05-04 05:36 | -18.06012 | 16.92961 | 38088 ft | 483 kts | 178° |
| 2026-05-04 05:37 | -18.12701 | 16.93739 | 38089 ft | 483 kts | 178° |
| 2026-05-04 05:37 | -18.19387 | 16.94518 | 38095 ft | 483 kts | 178° |
| 2026-05-04 05:38 | -18.29371 | 16.95683 | 38091 ft | 483 kts | 178° |
| 2026-05-04 05:38 | -18.36053 | 16.96463 | 38100 ft | 483 kts | 178° |
| 2026-05-04 05:39 | -18.46095 | 16.97636 | 38094 ft | 484 kts | 178° |
| 2026-05-04 05:40 | -18.56139 | 16.98811 | 38094 ft | 484 kts | 178° |
| 2026-05-04 05:40 | -18.62841 | 16.99596 | 38094 ft | 484 kts | 178° |
| 2026-05-04 05:41 | -18.69538 | 17.00382 | 38102 ft | 485 kts | 179° |
| 2026-05-04 05:41 | -18.76244 | 17.01168 | 38096 ft | 485 kts | 179° |
| 2026-05-04 05:42 | -18.82960 | 17.01957 | 38097 ft | 486 kts | 179° |
| 2026-05-04 05:42 | -18.89673 | 17.02747 | 38100 ft | 486 kts | 179° |
| 2026-05-04 05:43 | -18.96392 | 17.03537 | 38100 ft | 486 kts | 179° |
| 2026-05-04 05:45 | -19.23285 | 17.06731 | 38105 ft | 486 kts | 179° |
| 2026-05-04 05:47 | -19.50141 | 17.10013 | 38112 ft | 487 kts | 179° |
| 2026-05-04 05:47 | -19.56880 | 17.10837 | 38114 ft | 487 kts | 179° |
| 2026-05-04 05:48 | -19.63610 | 17.11660 | 38122 ft | 487 kts | 179° |
| 2026-05-04 05:48 | -19.70349 | 17.12484 | 38121 ft | 488 kts | 180° |
| 2026-05-04 05:49 | -19.77094 | 17.13310 | 38124 ft | 488 kts | 180° |
| 2026-05-04 05:49 | -19.83843 | 17.14137 | 38125 ft | 488 kts | 180° |
| 2026-05-04 05:51 | -20.10853 | 17.17456 | 38132 ft | 489 kts | 180° |
| 2026-05-04 05:52 | -20.17612 | 17.18289 | 38129 ft | 489 kts | 180° |
| 2026-05-04 05:52 | -20.24372 | 17.19122 | 38128 ft | 489 kts | 180° |
| 2026-05-04 05:54 | -20.51396 | 17.22462 | 38129 ft | 490 kts | 180° |
| 2026-05-04 05:55 | -20.58169 | 17.23301 | 38127 ft | 490 kts | 180° |
| 2026-05-04 05:55 | -20.64941 | 17.24141 | 38130 ft | 489 kts | 180° |
| 2026-05-04 05:56 | -20.71701 | 17.24980 | 38128 ft | 489 kts | 180° |
| 2026-05-04 05:56 | -20.78465 | 17.25820 | 38131 ft | 489 kts | 180° |
| 2026-05-04 05:57 | -20.84085 | 17.26518 | 38131 ft | 489 kts | 180° |
| 2026-05-04 05:57 | -20.90844 | 17.27356 | 38134 ft | 489 kts | 180° |
| 2026-05-04 05:58 | -20.97606 | 17.28196 | 38130 ft | 489 kts | 181° |
| 2026-05-04 05:58 | -21.04369 | 17.29037 | 38128 ft | 489 kts | 181° |
| 2026-05-04 05:59 | -21.11131 | 17.29878 | 38130 ft | 489 kts | 181° |
| 2026-05-04 05:59 | -21.17889 | 17.30720 | 38129 ft | 489 kts | 181° |
| 2026-05-04 06:00 | -21.24654 | 17.31564 | 38132 ft | 489 kts | 181° |
| 2026-05-04 06:00 | -21.31417 | 17.32408 | 38139 ft | 489 kts | 181° |
| 2026-05-04 06:01 | -21.38181 | 17.33254 | 38135 ft | 489 kts | 181° |
| 2026-05-04 06:03 | -21.65240 | 17.36643 | 38134 ft | 490 kts | 181° |
| 2026-05-04 06:05 | -21.95734 | 17.40476 | 38141 ft | 491 kts | 181° |
| 2026-05-04 06:06 | -22.02533 | 17.41332 | 38139 ft | 492 kts | 181° |
| 2026-05-04 06:06 | -22.09328 | 17.42189 | 38143 ft | 491 kts | 181° |
| 2026-05-04 06:07 | -22.16073 | 17.43041 | 38180 ft | 492 kts | 181° |
| 2026-05-04 06:07 | -22.22855 | 17.43897 | 38199 ft | 491 kts | 181° |
| 2026-05-04 06:08 | -22.29659 | 17.44758 | 38239 ft | 491 kts | 181° |
| 2026-05-04 06:08 | -22.36445 | 17.45617 | 38275 ft | 491 kts | 181° |
| 2026-05-04 06:09 | -22.43234 | 17.46477 | 38292 ft | 491 kts | 181° |
| 2026-05-04 06:11 | -22.66959 | 17.39057 | 38181 ft | 428 kts | 233° |
| 2026-05-04 06:13 | -22.78332 | 17.18355 | 36747 ft | 424 kts | 218° |
| 2026-05-04 06:14 | -22.94847 | 17.25162 | 33575 ft | 506 kts | 119° |
| 2026-05-04 06:14 | -22.96433 | 17.28568 | 33019 ft | 506 kts | 117° |
| 2026-05-04 06:15 | -22.97981 | 17.31990 | 32474 ft | 505 kts | 117° |
| 2026-05-04 06:15 | -22.99501 | 17.35367 | 31951 ft | 504 kts | 117° |
| 2026-05-04 06:15 | -23.01037 | 17.38784 | 31425 ft | 504 kts | 117° |
| 2026-05-04 06:15 | -23.02569 | 17.42199 | 30883 ft | 503 kts | 117° |
| 2026-05-04 06:16 | -23.04098 | 17.45604 | 30381 ft | 501 kts | 117° |
| 2026-05-04 06:16 | -23.05620 | 17.49001 | 29830 ft | 500 kts | 117° |
| 2026-05-04 06:16 | -23.07141 | 17.52388 | 29268 ft | 498 kts | 117° |
| 2026-05-04 06:16 | -23.08499 | 17.55837 | 28694 ft | 496 kts | 108° |
| 2026-05-04 06:17 | -23.09337 | 17.59454 | 28132 ft | 492 kts | 99° |
| 2026-05-04 06:17 | -23.09897 | 17.63107 | 27561 ft | 489 kts | 97° |
| 2026-05-04 06:17 | -23.10417 | 17.66742 | 27036 ft | 486 kts | 97° |
| 2026-05-04 06:17 | -23.10889 | 17.70369 | 26500 ft | 482 kts | 91° |
| 2026-05-04 06:18 | -23.10722 | 17.73953 | 25992 ft | 471 kts | 75° |
| 2026-05-04 06:18 | -23.09882 | 17.77352 | 25458 ft | 462 kts | 68° |
| 2026-05-04 06:18 | -23.08900 | 17.80608 | 24958 ft | 444 kts | 67° |
| 2026-05-04 06:20 | -23.02273 | 18.00891 | 20578 ft | 385 kts | 51° |
| 2026-05-04 06:20 | -23.00508 | 18.02966 | 19937 ft | 366 kts | 34° |
| 2026-05-04 06:21 | -22.91731 | 18.04306 | 17483 ft | 307 kts | 332° |
| 2026-05-04 06:21 | -22.89907 | 18.03186 | 16857 ft | 298 kts | 324° |
| 2026-05-04 06:22 | -22.88194 | 18.01943 | 16187 ft | 294 kts | 323° |
| 2026-05-04 06:22 | -22.86512 | 18.00698 | 15521 ft | 291 kts | 324° |
| 2026-05-04 06:25 | -22.66160 | 17.85964 | 8764 ft | 257 kts | 327° |
| 2026-05-04 06:25 | -22.64675 | 17.84896 | 8568 ft | 255 kts | 327° |
| 2026-05-04 06:26 | -22.63197 | 17.83833 | 8360 ft | 255 kts | 327° |
| 2026-05-04 06:26 | -22.61726 | 17.82775 | 8188 ft | 253 kts | 327° |
| 2026-05-04 06:26 | -22.60260 | 17.81721 | 8131 ft | 252 kts | 327° |
| 2026-05-04 06:26 | -22.58798 | 17.80671 | 8133 ft | 252 kts | 327° |
| 2026-05-04 06:27 | -22.52950 | 17.76474 | 8137 ft | 252 kts | 327° |
| 2026-05-04 06:28 | -22.51485 | 17.75424 | 8137 ft | 253 kts | 327° |
| 2026-05-04 06:28 | -22.50018 | 17.74372 | 8143 ft | 253 kts | 327° |
| 2026-05-04 06:28 | -22.48549 | 17.73319 | 8206 ft | 254 kts | 327° |
| 2026-05-04 06:28 | -22.47073 | 17.72261 | 8208 ft | 255 kts | 327° |
| 2026-05-04 06:29 | -22.45593 | 17.71201 | 8213 ft | 255 kts | 327° |
| 2026-05-04 06:29 | -22.44111 | 17.70139 | 8217 ft | 256 kts | 327° |
| 2026-05-04 06:29 | -22.42632 | 17.69081 | 8214 ft | 250 kts | 327° |
| 2026-05-04 06:29 | -22.41261 | 17.68038 | 8224 ft | 234 kts | 319° |
| 2026-05-04 06:30 | -22.40302 | 17.66691 | 8245 ft | 222 kts | 297° |
| 2026-05-04 06:30 | -22.40005 | 17.65096 | 8233 ft | 216 kts | 270° |
| 2026-05-04 06:30 | -22.40403 | 17.63568 | 8302 ft | 209 kts | 253° |
| 2026-05-04 06:30 | -22.41048 | 17.62159 | 8220 ft | 210 kts | 248° |
| 2026-05-04 06:31 | -22.41707 | 17.60774 | 7941 ft | 211 kts | 249° |
| 2026-05-04 06:31 | -22.42356 | 17.59346 | 7642 ft | 213 kts | 250° |
| 2026-05-04 06:31 | -22.43009 | 17.57924 | 7370 ft | 210 kts | 250° |
| 2026-05-04 06:31 | -22.43656 | 17.56521 | 7118 ft | 207 kts | 250° |
| 2026-05-04 06:32 | -22.44293 | 17.55132 | 6873 ft | 205 kts | 250° |
| 2026-05-04 06:33 | -22.47883 | 17.47329 | 5565 ft | 94 kts | 244° |
| 2026-05-04 06:34 | -22.48145 | 17.46753 | 5567 ft | 78 kts | 244° |
| 2026-05-04 06:34 | -22.48322 | 17.46369 | 5569 ft | 32 kts | 244° |
| 2026-05-04 06:34 | -22.48390 | 17.46295 | 5570 ft | 11 kts | 180° |
| 2026-05-04 06:34 | -22.48455 | 17.46305 | 5570 ft | 8 kts | 192° |
| 2026-05-04 06:35 | -22.48487 | 17.46273 | 5571 ft | 6 kts | 237° |
| 2026-05-04 06:36 | -22.48720 | 17.46057 | 5571 ft | 1 kts | 93° |
| 2026-05-04 06:37 | -22.48708 | 17.46063 | 5571 ft | 3 kts | 14° |
| 2026-05-04 06:37 | -22.48699 | 17.46064 | 5569 ft | 0 kts | 6° |